<?xml version="1.0" encoding="UTF-8" standalone="no" ?>
<gpx xmlns="http://www.topografix.com/GPX/1/1" xmlns:xsi="http://www.w3.org/2001/XMLSchema-instance" xsi:schemaLocation="http://www.topografix.com/GPX/1/1 http://www.topografix.com/GPX/1/1/gpx.xsd" version="1.1" creator="VisuGPX - https://www.visugpx.com">
  <metadata>
    <name>pr2 randonnees desaignes bouton- jaute dessus</name>
    <desc><![CDATA[ras manque indication a l\'hubac]]></desc>
  </metadata>
  <trk>
    <name><![CDATA[Tracé 27 oct. 2015 09:20:13]]></name>
    <trkseg>
      <trkpt lat="44.99533" lon="4.51652">
        <ele>369</ele>
        <time>2015-10-27T08:20:13Z</time>
      </trkpt>
      <trkpt lat="44.99558" lon="4.51669">
        <ele>366</ele>
        <time>2015-10-27T08:20:18Z</time>
      </trkpt>
      <trkpt lat="44.99578" lon="4.51684">
        <ele>363</ele>
        <time>2015-10-27T08:20:22Z</time>
      </trkpt>
      <trkpt lat="44.99566" lon="4.51694">
        <ele>358</ele>
        <time>2015-10-27T08:20:27Z</time>
      </trkpt>
      <trkpt lat="44.99571" lon="4.51697">
        <ele>354</ele>
        <time>2015-10-27T08:20:33Z</time>
      </trkpt>
      <trkpt lat="44.99577" lon="4.51689">
        <ele>351</ele>
        <time>2015-10-27T08:20:39Z</time>
      </trkpt>
      <trkpt lat="44.99582" lon="4.51679">
        <ele>347</ele>
        <time>2015-10-27T08:20:47Z</time>
      </trkpt>
      <trkpt lat="44.99584" lon="4.51668">
        <ele>343</ele>
        <time>2015-10-27T08:20:56Z</time>
      </trkpt>
      <trkpt lat="44.99589" lon="4.51659">
        <ele>339</ele>
        <time>2015-10-27T08:21:05Z</time>
      </trkpt>
      <trkpt lat="44.99595" lon="4.51654">
        <ele>338</ele>
        <time>2015-10-27T08:21:09Z</time>
      </trkpt>
      <trkpt lat="44.99606" lon="4.51653">
        <ele>337</ele>
        <time>2015-10-27T08:21:13Z</time>
      </trkpt>
      <trkpt lat="44.99613" lon="4.51651">
        <ele>336</ele>
        <time>2015-10-27T08:21:16Z</time>
      </trkpt>
      <trkpt lat="44.99621" lon="4.51652">
        <ele>334</ele>
        <time>2015-10-27T08:21:23Z</time>
      </trkpt>
      <trkpt lat="44.9963" lon="4.51652">
        <ele>331</ele>
        <time>2015-10-27T08:21:30Z</time>
      </trkpt>
      <trkpt lat="44.99635" lon="4.51652">
        <ele>329</ele>
        <time>2015-10-27T08:21:35Z</time>
      </trkpt>
      <trkpt lat="44.99647" lon="4.51658">
        <ele>328</ele>
        <time>2015-10-27T08:21:39Z</time>
      </trkpt>
      <trkpt lat="44.99659" lon="4.51657">
        <ele>327</ele>
        <time>2015-10-27T08:21:44Z</time>
      </trkpt>
      <trkpt lat="44.99666" lon="4.51661">
        <ele>325</ele>
        <time>2015-10-27T08:21:52Z</time>
      </trkpt>
      <trkpt lat="44.99672" lon="4.51667">
        <ele>323</ele>
        <time>2015-10-27T08:21:58Z</time>
      </trkpt>
      <trkpt lat="44.99681" lon="4.51668">
        <ele>319</ele>
        <time>2015-10-27T08:22:10Z</time>
      </trkpt>
      <trkpt lat="44.99689" lon="4.51668">
        <ele>317</ele>
        <time>2015-10-27T08:22:18Z</time>
      </trkpt>
      <trkpt lat="44.99704" lon="4.5167">
        <ele>317</ele>
        <time>2015-10-27T08:22:23Z</time>
      </trkpt>
      <trkpt lat="44.99711" lon="4.51671">
        <ele>317</ele>
        <time>2015-10-27T08:22:28Z</time>
      </trkpt>
      <trkpt lat="44.99717" lon="4.51668">
        <ele>317</ele>
        <time>2015-10-27T08:22:32Z</time>
      </trkpt>
      <trkpt lat="44.99722" lon="4.51663">
        <ele>317</ele>
        <time>2015-10-27T08:22:36Z</time>
      </trkpt>
      <trkpt lat="44.99727" lon="4.51657">
        <ele>318</ele>
        <time>2015-10-27T08:22:40Z</time>
      </trkpt>
      <trkpt lat="44.99733" lon="4.51655">
        <ele>319</ele>
        <time>2015-10-27T08:22:44Z</time>
      </trkpt>
      <trkpt lat="44.99741" lon="4.51649">
        <ele>319</ele>
        <time>2015-10-27T08:22:51Z</time>
      </trkpt>
      <trkpt lat="44.99749" lon="4.51643">
        <ele>319</ele>
        <time>2015-10-27T08:22:56Z</time>
      </trkpt>
      <trkpt lat="44.99754" lon="4.51638">
        <ele>318</ele>
        <time>2015-10-27T08:23:00Z</time>
      </trkpt>
      <trkpt lat="44.99763" lon="4.51633">
        <ele>319</ele>
        <time>2015-10-27T08:23:04Z</time>
      </trkpt>
      <trkpt lat="44.99769" lon="4.51624">
        <ele>320</ele>
        <time>2015-10-27T08:23:09Z</time>
      </trkpt>
      <trkpt lat="44.99776" lon="4.51617">
        <ele>321</ele>
        <time>2015-10-27T08:23:14Z</time>
      </trkpt>
      <trkpt lat="44.99783" lon="4.51611">
        <ele>321</ele>
        <time>2015-10-27T08:23:21Z</time>
      </trkpt>
      <trkpt lat="44.99791" lon="4.5161">
        <ele>321</ele>
        <time>2015-10-27T08:23:28Z</time>
      </trkpt>
      <trkpt lat="44.99798" lon="4.51606">
        <ele>321</ele>
        <time>2015-10-27T08:23:33Z</time>
      </trkpt>
      <trkpt lat="44.99808" lon="4.51605">
        <ele>322</ele>
        <time>2015-10-27T08:23:38Z</time>
      </trkpt>
      <trkpt lat="44.99818" lon="4.51607">
        <ele>323</ele>
        <time>2015-10-27T08:23:42Z</time>
      </trkpt>
      <trkpt lat="44.99833" lon="4.51607">
        <ele>325</ele>
        <time>2015-10-27T08:23:47Z</time>
      </trkpt>
      <trkpt lat="44.99844" lon="4.51611">
        <ele>326</ele>
        <time>2015-10-27T08:23:52Z</time>
      </trkpt>
      <trkpt lat="44.99851" lon="4.51615">
        <ele>326</ele>
        <time>2015-10-27T08:23:56Z</time>
      </trkpt>
      <trkpt lat="44.99859" lon="4.51619">
        <ele>327</ele>
        <time>2015-10-27T08:24:00Z</time>
      </trkpt>
      <trkpt lat="44.99867" lon="4.51623">
        <ele>327</ele>
        <time>2015-10-27T08:24:04Z</time>
      </trkpt>
      <trkpt lat="44.99875" lon="4.51627">
        <ele>327</ele>
        <time>2015-10-27T08:24:10Z</time>
      </trkpt>
      <trkpt lat="44.99882" lon="4.51631">
        <ele>326</ele>
        <time>2015-10-27T08:24:14Z</time>
      </trkpt>
      <trkpt lat="44.99888" lon="4.51635">
        <ele>326</ele>
        <time>2015-10-27T08:24:18Z</time>
      </trkpt>
      <trkpt lat="44.99895" lon="4.5164">
        <ele>325</ele>
        <time>2015-10-27T08:24:23Z</time>
      </trkpt>
      <trkpt lat="44.99903" lon="4.51643">
        <ele>325</ele>
        <time>2015-10-27T08:24:28Z</time>
      </trkpt>
      <trkpt lat="44.9991" lon="4.51648">
        <ele>325</ele>
        <time>2015-10-27T08:24:32Z</time>
      </trkpt>
      <trkpt lat="44.99917" lon="4.51651">
        <ele>325</ele>
        <time>2015-10-27T08:24:37Z</time>
      </trkpt>
      <trkpt lat="44.99925" lon="4.51656">
        <ele>325</ele>
        <time>2015-10-27T08:24:42Z</time>
      </trkpt>
      <trkpt lat="44.99933" lon="4.5166">
        <ele>325</ele>
        <time>2015-10-27T08:24:47Z</time>
      </trkpt>
      <trkpt lat="44.99934" lon="4.5166">
        <ele>325</ele>
        <time>2015-10-27T08:24:48Z</time>
      </trkpt>
      <trkpt lat="44.99945" lon="4.51662">
        <ele>326</ele>
        <time>2015-10-27T08:24:58Z</time>
      </trkpt>
      <trkpt lat="44.99947" lon="4.51659">
        <ele>326</ele>
        <time>2015-10-27T08:25:00Z</time>
      </trkpt>
      <trkpt lat="44.99951" lon="4.51651">
        <ele>326</ele>
        <time>2015-10-27T08:25:07Z</time>
      </trkpt>
      <trkpt lat="44.99959" lon="4.51642">
        <ele>327</ele>
        <time>2015-10-27T08:25:12Z</time>
      </trkpt>
      <trkpt lat="44.99965" lon="4.51635">
        <ele>327</ele>
        <time>2015-10-27T08:25:17Z</time>
      </trkpt>
      <trkpt lat="44.99966" lon="4.51626">
        <ele>327</ele>
        <time>2015-10-27T08:25:21Z</time>
      </trkpt>
      <trkpt lat="44.99967" lon="4.51618">
        <ele>327</ele>
        <time>2015-10-27T08:25:25Z</time>
      </trkpt>
      <trkpt lat="44.9997" lon="4.51606">
        <ele>327</ele>
        <time>2015-10-27T08:25:30Z</time>
      </trkpt>
      <trkpt lat="44.99975" lon="4.516">
        <ele>327</ele>
        <time>2015-10-27T08:25:35Z</time>
      </trkpt>
      <trkpt lat="44.99987" lon="4.51593">
        <ele>329</ele>
        <time>2015-10-27T08:25:40Z</time>
      </trkpt>
      <trkpt lat="44.99995" lon="4.5159">
        <ele>330</ele>
        <time>2015-10-27T08:25:44Z</time>
      </trkpt>
      <trkpt lat="45" lon="4.51584">
        <ele>331</ele>
        <time>2015-10-27T08:25:49Z</time>
      </trkpt>
      <trkpt lat="45.00004" lon="4.51578">
        <ele>331</ele>
        <time>2015-10-27T08:25:53Z</time>
      </trkpt>
      <trkpt lat="45.0001" lon="4.51569">
        <ele>332</ele>
        <time>2015-10-27T08:25:58Z</time>
      </trkpt>
      <trkpt lat="45.00015" lon="4.51562">
        <ele>332</ele>
        <time>2015-10-27T08:26:02Z</time>
      </trkpt>
      <trkpt lat="45.00021" lon="4.51556">
        <ele>334</ele>
        <time>2015-10-27T08:26:08Z</time>
      </trkpt>
      <trkpt lat="45.00025" lon="4.5155">
        <ele>334</ele>
        <time>2015-10-27T08:26:12Z</time>
      </trkpt>
      <trkpt lat="45.00033" lon="4.51547">
        <ele>336</ele>
        <time>2015-10-27T08:26:18Z</time>
      </trkpt>
      <trkpt lat="45.00045" lon="4.51535">
        <ele>339</ele>
        <time>2015-10-27T08:26:23Z</time>
      </trkpt>
      <trkpt lat="45.00048" lon="4.51526">
        <ele>339</ele>
        <time>2015-10-27T08:26:28Z</time>
      </trkpt>
      <trkpt lat="45.00053" lon="4.51516">
        <ele>341</ele>
        <time>2015-10-27T08:26:35Z</time>
      </trkpt>
      <trkpt lat="45.00057" lon="4.51511">
        <ele>342</ele>
        <time>2015-10-27T08:26:39Z</time>
      </trkpt>
      <trkpt lat="45.00081" lon="4.51495">
        <ele>351</ele>
        <time>2015-10-27T08:26:44Z</time>
      </trkpt>
      <trkpt lat="45.00089" lon="4.51492">
        <ele>356</ele>
        <time>2015-10-27T08:26:50Z</time>
      </trkpt>
      <trkpt lat="45.00093" lon="4.51481">
        <ele>362</ele>
        <time>2015-10-27T08:27:00Z</time>
      </trkpt>
      <trkpt lat="45.00099" lon="4.51476">
        <ele>365</ele>
        <time>2015-10-27T08:27:05Z</time>
      </trkpt>
      <trkpt lat="45.00104" lon="4.51468">
        <ele>367</ele>
        <time>2015-10-27T08:27:12Z</time>
      </trkpt>
      <trkpt lat="45.00113" lon="4.51466">
        <ele>372</ele>
        <time>2015-10-27T08:27:20Z</time>
      </trkpt>
      <trkpt lat="45.00119" lon="4.51459">
        <ele>374</ele>
        <time>2015-10-27T08:27:25Z</time>
      </trkpt>
      <trkpt lat="45.00127" lon="4.51453">
        <ele>377</ele>
        <time>2015-10-27T08:27:32Z</time>
      </trkpt>
      <trkpt lat="45.00133" lon="4.51448">
        <ele>379</ele>
        <time>2015-10-27T08:27:37Z</time>
      </trkpt>
      <trkpt lat="45.00138" lon="4.51451">
        <ele>381</ele>
        <time>2015-10-27T08:27:43Z</time>
      </trkpt>
      <trkpt lat="45.00146" lon="4.51452">
        <ele>383</ele>
        <time>2015-10-27T08:27:49Z</time>
      </trkpt>
      <trkpt lat="45.00153" lon="4.51438">
        <ele>384</ele>
        <time>2015-10-27T08:27:53Z</time>
      </trkpt>
      <trkpt lat="45.00162" lon="4.51426">
        <ele>385</ele>
        <time>2015-10-27T08:27:57Z</time>
      </trkpt>
      <trkpt lat="45.00166" lon="4.51417">
        <ele>387</ele>
        <time>2015-10-27T08:28:02Z</time>
      </trkpt>
      <trkpt lat="45.0017" lon="4.51408">
        <ele>388</ele>
        <time>2015-10-27T08:28:06Z</time>
      </trkpt>
      <trkpt lat="45.00173" lon="4.51399">
        <ele>390</ele>
        <time>2015-10-27T08:28:11Z</time>
      </trkpt>
      <trkpt lat="45.00178" lon="4.51392">
        <ele>391</ele>
        <time>2015-10-27T08:28:16Z</time>
      </trkpt>
      <trkpt lat="45.00183" lon="4.51384">
        <ele>393</ele>
        <time>2015-10-27T08:28:21Z</time>
      </trkpt>
      <trkpt lat="45.00189" lon="4.5138">
        <ele>394</ele>
        <time>2015-10-27T08:28:25Z</time>
      </trkpt>
      <trkpt lat="45.00191" lon="4.5137">
        <ele>396</ele>
        <time>2015-10-27T08:28:30Z</time>
      </trkpt>
      <trkpt lat="45.00196" lon="4.51361">
        <ele>397</ele>
        <time>2015-10-27T08:28:36Z</time>
      </trkpt>
      <trkpt lat="45.00198" lon="4.51351">
        <ele>397</ele>
        <time>2015-10-27T08:28:42Z</time>
      </trkpt>
      <trkpt lat="45.00201" lon="4.5134">
        <ele>399</ele>
        <time>2015-10-27T08:28:50Z</time>
      </trkpt>
      <trkpt lat="45.00208" lon="4.51331">
        <ele>400</ele>
        <time>2015-10-27T08:28:56Z</time>
      </trkpt>
      <trkpt lat="45.00213" lon="4.51326">
        <ele>400</ele>
        <time>2015-10-27T08:29:00Z</time>
      </trkpt>
      <trkpt lat="45.00219" lon="4.5132">
        <ele>401</ele>
        <time>2015-10-27T08:29:05Z</time>
      </trkpt>
      <trkpt lat="45.00224" lon="4.51314">
        <ele>401</ele>
        <time>2015-10-27T08:29:09Z</time>
      </trkpt>
      <trkpt lat="45.0023" lon="4.51305">
        <ele>402</ele>
        <time>2015-10-27T08:29:16Z</time>
      </trkpt>
      <trkpt lat="45.00232" lon="4.51294">
        <ele>402</ele>
        <time>2015-10-27T08:29:20Z</time>
      </trkpt>
      <trkpt lat="45.00237" lon="4.51278">
        <ele>403</ele>
        <time>2015-10-27T08:29:24Z</time>
      </trkpt>
      <trkpt lat="45.00238" lon="4.51264">
        <ele>404</ele>
        <time>2015-10-27T08:29:29Z</time>
      </trkpt>
      <trkpt lat="45.00242" lon="4.51256">
        <ele>404</ele>
        <time>2015-10-27T08:29:35Z</time>
      </trkpt>
      <trkpt lat="45.00248" lon="4.51249">
        <ele>405</ele>
        <time>2015-10-27T08:29:39Z</time>
      </trkpt>
      <trkpt lat="45.00252" lon="4.51242">
        <ele>405</ele>
        <time>2015-10-27T08:29:45Z</time>
      </trkpt>
      <trkpt lat="45.00255" lon="4.51234">
        <ele>404</ele>
        <time>2015-10-27T08:29:51Z</time>
      </trkpt>
      <trkpt lat="45.00262" lon="4.51231">
        <ele>403</ele>
        <time>2015-10-27T08:29:54Z</time>
      </trkpt>
      <trkpt lat="45.00274" lon="4.51225">
        <ele>402</ele>
        <time>2015-10-27T08:29:58Z</time>
      </trkpt>
      <trkpt lat="45.00286" lon="4.51216">
        <ele>402</ele>
        <time>2015-10-27T08:30:03Z</time>
      </trkpt>
      <trkpt lat="45.00292" lon="4.51214">
        <ele>402</ele>
        <time>2015-10-27T08:30:07Z</time>
      </trkpt>
      <trkpt lat="45.00298" lon="4.5121">
        <ele>402</ele>
        <time>2015-10-27T08:30:11Z</time>
      </trkpt>
      <trkpt lat="45.00306" lon="4.51204">
        <ele>402</ele>
        <time>2015-10-27T08:30:16Z</time>
      </trkpt>
      <trkpt lat="45.00307" lon="4.51195">
        <ele>402</ele>
        <time>2015-10-27T08:30:20Z</time>
      </trkpt>
      <trkpt lat="45.00312" lon="4.51184">
        <ele>402</ele>
        <time>2015-10-27T08:30:24Z</time>
      </trkpt>
      <trkpt lat="45.00317" lon="4.51177">
        <ele>401</ele>
        <time>2015-10-27T08:30:28Z</time>
      </trkpt>
      <trkpt lat="45.00324" lon="4.5117">
        <ele>401</ele>
        <time>2015-10-27T08:30:32Z</time>
      </trkpt>
      <trkpt lat="45.00333" lon="4.51162">
        <ele>401</ele>
        <time>2015-10-27T08:30:36Z</time>
      </trkpt>
      <trkpt lat="45.00338" lon="4.51154">
        <ele>401</ele>
        <time>2015-10-27T08:30:40Z</time>
      </trkpt>
      <trkpt lat="45.00344" lon="4.51145">
        <ele>403</ele>
        <time>2015-10-27T08:30:45Z</time>
      </trkpt>
      <trkpt lat="45.00349" lon="4.51136">
        <ele>404</ele>
        <time>2015-10-27T08:30:51Z</time>
      </trkpt>
      <trkpt lat="45.00354" lon="4.51126">
        <ele>404</ele>
        <time>2015-10-27T08:30:57Z</time>
      </trkpt>
      <trkpt lat="45.00356" lon="4.51117">
        <ele>404</ele>
        <time>2015-10-27T08:31:01Z</time>
      </trkpt>
      <trkpt lat="45.0036" lon="4.51109">
        <ele>404</ele>
        <time>2015-10-27T08:31:05Z</time>
      </trkpt>
      <trkpt lat="45.00368" lon="4.51105">
        <ele>403</ele>
        <time>2015-10-27T08:31:10Z</time>
      </trkpt>
      <trkpt lat="45.00379" lon="4.5111">
        <ele>403</ele>
        <time>2015-10-27T08:31:14Z</time>
      </trkpt>
      <trkpt lat="45.00384" lon="4.51103">
        <ele>403</ele>
        <time>2015-10-27T08:31:19Z</time>
      </trkpt>
      <trkpt lat="45.00386" lon="4.51092">
        <ele>402</ele>
        <time>2015-10-27T08:31:24Z</time>
      </trkpt>
      <trkpt lat="45.00387" lon="4.51083">
        <ele>403</ele>
        <time>2015-10-27T08:31:27Z</time>
      </trkpt>
      <trkpt lat="45.00392" lon="4.51067">
        <ele>403</ele>
        <time>2015-10-27T08:31:30Z</time>
      </trkpt>
      <trkpt lat="45.00397" lon="4.51048">
        <ele>404</ele>
        <time>2015-10-27T08:31:34Z</time>
      </trkpt>
      <trkpt lat="45.00402" lon="4.51038">
        <ele>405</ele>
        <time>2015-10-27T08:31:42Z</time>
      </trkpt>
      <trkpt lat="45.00407" lon="4.51032">
        <ele>406</ele>
        <time>2015-10-27T08:31:48Z</time>
      </trkpt>
      <trkpt lat="45.00413" lon="4.51027">
        <ele>407</ele>
        <time>2015-10-27T08:31:54Z</time>
      </trkpt>
      <trkpt lat="45.00418" lon="4.51019">
        <ele>408</ele>
        <time>2015-10-27T08:31:58Z</time>
      </trkpt>
      <trkpt lat="45.00423" lon="4.51012">
        <ele>409</ele>
        <time>2015-10-27T08:32:02Z</time>
      </trkpt>
      <trkpt lat="45.00425" lon="4.51004">
        <ele>410</ele>
        <time>2015-10-27T08:32:06Z</time>
      </trkpt>
      <trkpt lat="45.0043" lon="4.50994">
        <ele>410</ele>
        <time>2015-10-27T08:32:11Z</time>
      </trkpt>
      <trkpt lat="45.00434" lon="4.50985">
        <ele>410</ele>
        <time>2015-10-27T08:32:16Z</time>
      </trkpt>
      <trkpt lat="45.00439" lon="4.50975">
        <ele>411</ele>
        <time>2015-10-27T08:32:22Z</time>
      </trkpt>
      <trkpt lat="45.00441" lon="4.50965">
        <ele>411</ele>
        <time>2015-10-27T08:32:26Z</time>
      </trkpt>
      <trkpt lat="45.00446" lon="4.50955">
        <ele>411</ele>
        <time>2015-10-27T08:32:32Z</time>
      </trkpt>
      <trkpt lat="45.00448" lon="4.50946">
        <ele>412</ele>
        <time>2015-10-27T08:32:36Z</time>
      </trkpt>
      <trkpt lat="45.00449" lon="4.50935">
        <ele>412</ele>
        <time>2015-10-27T08:32:40Z</time>
      </trkpt>
      <trkpt lat="45.00451" lon="4.50927">
        <ele>412</ele>
        <time>2015-10-27T08:32:44Z</time>
      </trkpt>
      <trkpt lat="45.00455" lon="4.5092">
        <ele>412</ele>
        <time>2015-10-27T08:32:48Z</time>
      </trkpt>
      <trkpt lat="45.00456" lon="4.5091">
        <ele>413</ele>
        <time>2015-10-27T08:32:52Z</time>
      </trkpt>
      <trkpt lat="45.00461" lon="4.50902">
        <ele>413</ele>
        <time>2015-10-27T08:32:57Z</time>
      </trkpt>
      <trkpt lat="45.00468" lon="4.50894">
        <ele>413</ele>
        <time>2015-10-27T08:33:02Z</time>
      </trkpt>
      <trkpt lat="45.00472" lon="4.50886">
        <ele>414</ele>
        <time>2015-10-27T08:33:07Z</time>
      </trkpt>
      <trkpt lat="45.00476" lon="4.50875">
        <ele>414</ele>
        <time>2015-10-27T08:33:12Z</time>
      </trkpt>
      <trkpt lat="45.00479" lon="4.50867">
        <ele>414</ele>
        <time>2015-10-27T08:33:16Z</time>
      </trkpt>
      <trkpt lat="45.00484" lon="4.50858">
        <ele>415</ele>
        <time>2015-10-27T08:33:21Z</time>
      </trkpt>
      <trkpt lat="45.00489" lon="4.50848">
        <ele>415</ele>
        <time>2015-10-27T08:33:27Z</time>
      </trkpt>
      <trkpt lat="45.00497" lon="4.50841">
        <ele>416</ele>
        <time>2015-10-27T08:33:32Z</time>
      </trkpt>
      <trkpt lat="45.00504" lon="4.50838">
        <ele>417</ele>
        <time>2015-10-27T08:33:41Z</time>
      </trkpt>
      <trkpt lat="45.00509" lon="4.50846">
        <ele>418</ele>
        <time>2015-10-27T08:33:46Z</time>
      </trkpt>
      <trkpt lat="45.0051" lon="4.50855">
        <ele>418</ele>
        <time>2015-10-27T08:33:51Z</time>
      </trkpt>
      <trkpt lat="45.0051" lon="4.50867">
        <ele>419</ele>
        <time>2015-10-27T08:33:57Z</time>
      </trkpt>
      <trkpt lat="45.00511" lon="4.50876">
        <ele>419</ele>
        <time>2015-10-27T08:34:02Z</time>
      </trkpt>
      <trkpt lat="45.00509" lon="4.50887">
        <ele>419</ele>
        <time>2015-10-27T08:34:06Z</time>
      </trkpt>
      <trkpt lat="45.00509" lon="4.50898">
        <ele>420</ele>
        <time>2015-10-27T08:34:12Z</time>
      </trkpt>
      <trkpt lat="45.00505" lon="4.50906">
        <ele>422</ele>
        <time>2015-10-27T08:34:20Z</time>
      </trkpt>
      <trkpt lat="45.00504" lon="4.50915">
        <ele>423</ele>
        <time>2015-10-27T08:34:25Z</time>
      </trkpt>
      <trkpt lat="45.00503" lon="4.50924">
        <ele>423</ele>
        <time>2015-10-27T08:34:30Z</time>
      </trkpt>
      <trkpt lat="45.00503" lon="4.50935">
        <ele>424</ele>
        <time>2015-10-27T08:34:35Z</time>
      </trkpt>
      <trkpt lat="45.00503" lon="4.50944">
        <ele>425</ele>
        <time>2015-10-27T08:34:40Z</time>
      </trkpt>
      <trkpt lat="45.00503" lon="4.50954">
        <ele>425</ele>
        <time>2015-10-27T08:34:44Z</time>
      </trkpt>
      <trkpt lat="45.00505" lon="4.50965">
        <ele>426</ele>
        <time>2015-10-27T08:34:48Z</time>
      </trkpt>
      <trkpt lat="45.00506" lon="4.50977">
        <ele>426</ele>
        <time>2015-10-27T08:34:55Z</time>
      </trkpt>
      <trkpt lat="45.00506" lon="4.50983">
        <ele>427</ele>
        <time>2015-10-27T08:34:58Z</time>
      </trkpt>
      <trkpt lat="45.00507" lon="4.51002">
        <ele>427</ele>
        <time>2015-10-27T08:35:09Z</time>
      </trkpt>
      <trkpt lat="45.00509" lon="4.5101">
        <ele>428</ele>
        <time>2015-10-27T08:35:17Z</time>
      </trkpt>
      <trkpt lat="45.00512" lon="4.51019">
        <ele>429</ele>
        <time>2015-10-27T08:35:35Z</time>
      </trkpt>
      <trkpt lat="45.00531" lon="4.51032">
        <ele>430</ele>
        <time>2015-10-27T08:35:40Z</time>
      </trkpt>
      <trkpt lat="45.0053" lon="4.51023">
        <ele>431</ele>
        <time>2015-10-27T08:35:46Z</time>
      </trkpt>
      <trkpt lat="45.00532" lon="4.51012">
        <ele>431</ele>
        <time>2015-10-27T08:35:52Z</time>
      </trkpt>
      <trkpt lat="45.00533" lon="4.51">
        <ele>432</ele>
        <time>2015-10-27T08:35:57Z</time>
      </trkpt>
      <trkpt lat="45.00538" lon="4.50992">
        <ele>432</ele>
        <time>2015-10-27T08:36:01Z</time>
      </trkpt>
      <trkpt lat="45.00546" lon="4.50987">
        <ele>433</ele>
        <time>2015-10-27T08:36:07Z</time>
      </trkpt>
      <trkpt lat="45.00551" lon="4.50988">
        <ele>435</ele>
        <time>2015-10-27T08:36:14Z</time>
      </trkpt>
      <trkpt lat="45.00558" lon="4.50992">
        <ele>436</ele>
        <time>2015-10-27T08:36:20Z</time>
      </trkpt>
      <trkpt lat="45.00567" lon="4.50996">
        <ele>437</ele>
        <time>2015-10-27T08:36:25Z</time>
      </trkpt>
      <trkpt lat="45.00573" lon="4.50999">
        <ele>438</ele>
        <time>2015-10-27T08:36:30Z</time>
      </trkpt>
      <trkpt lat="45.0058" lon="4.51005">
        <ele>440</ele>
        <time>2015-10-27T08:36:40Z</time>
      </trkpt>
      <trkpt lat="45.00588" lon="4.5101">
        <ele>441</ele>
        <time>2015-10-27T08:36:45Z</time>
      </trkpt>
      <trkpt lat="45.00593" lon="4.51014">
        <ele>442</ele>
        <time>2015-10-27T08:36:50Z</time>
      </trkpt>
      <trkpt lat="45.00601" lon="4.51019">
        <ele>443</ele>
        <time>2015-10-27T08:36:55Z</time>
      </trkpt>
      <trkpt lat="45.00607" lon="4.51022">
        <ele>444</ele>
        <time>2015-10-27T08:37:00Z</time>
      </trkpt>
      <trkpt lat="45.00613" lon="4.51028">
        <ele>444</ele>
        <time>2015-10-27T08:37:06Z</time>
      </trkpt>
      <trkpt lat="45.00617" lon="4.51037">
        <ele>445</ele>
        <time>2015-10-27T08:37:14Z</time>
      </trkpt>
      <trkpt lat="45.00623" lon="4.51044">
        <ele>446</ele>
        <time>2015-10-27T08:37:21Z</time>
      </trkpt>
      <trkpt lat="45.00628" lon="4.51051">
        <ele>447</ele>
        <time>2015-10-27T08:37:26Z</time>
      </trkpt>
      <trkpt lat="45.00633" lon="4.51054">
        <ele>448</ele>
        <time>2015-10-27T08:37:31Z</time>
      </trkpt>
      <trkpt lat="45.00639" lon="4.51056">
        <ele>448</ele>
        <time>2015-10-27T08:37:34Z</time>
      </trkpt>
      <trkpt lat="45.00646" lon="4.51058">
        <ele>449</ele>
        <time>2015-10-27T08:37:38Z</time>
      </trkpt>
      <trkpt lat="45.00653" lon="4.5106">
        <ele>450</ele>
        <time>2015-10-27T08:37:44Z</time>
      </trkpt>
      <trkpt lat="45.00661" lon="4.51063">
        <ele>451</ele>
        <time>2015-10-27T08:37:50Z</time>
      </trkpt>
      <trkpt lat="45.00666" lon="4.51067">
        <ele>452</ele>
        <time>2015-10-27T08:37:54Z</time>
      </trkpt>
      <trkpt lat="45.00673" lon="4.51069">
        <ele>453</ele>
        <time>2015-10-27T08:37:58Z</time>
      </trkpt>
      <trkpt lat="45.00682" lon="4.51071">
        <ele>454</ele>
        <time>2015-10-27T08:38:02Z</time>
      </trkpt>
      <trkpt lat="45.00689" lon="4.51074">
        <ele>455</ele>
        <time>2015-10-27T08:38:06Z</time>
      </trkpt>
      <trkpt lat="45.00696" lon="4.51078">
        <ele>456</ele>
        <time>2015-10-27T08:38:12Z</time>
      </trkpt>
      <trkpt lat="45.00702" lon="4.51082">
        <ele>457</ele>
        <time>2015-10-27T08:38:18Z</time>
      </trkpt>
      <trkpt lat="45.0071" lon="4.51083">
        <ele>458</ele>
        <time>2015-10-27T08:38:22Z</time>
      </trkpt>
      <trkpt lat="45.00717" lon="4.51085">
        <ele>459</ele>
        <time>2015-10-27T08:38:26Z</time>
      </trkpt>
      <trkpt lat="45.00725" lon="4.51089">
        <ele>460</ele>
        <time>2015-10-27T08:38:31Z</time>
      </trkpt>
      <trkpt lat="45.0073" lon="4.51094">
        <ele>461</ele>
        <time>2015-10-27T08:38:36Z</time>
      </trkpt>
      <trkpt lat="45.00735" lon="4.51101">
        <ele>463</ele>
        <time>2015-10-27T08:38:41Z</time>
      </trkpt>
      <trkpt lat="45.00744" lon="4.51107">
        <ele>463</ele>
        <time>2015-10-27T08:38:46Z</time>
      </trkpt>
      <trkpt lat="45.00752" lon="4.51112">
        <ele>464</ele>
        <time>2015-10-27T08:38:51Z</time>
      </trkpt>
      <trkpt lat="45.00758" lon="4.51118">
        <ele>465</ele>
        <time>2015-10-27T08:38:56Z</time>
      </trkpt>
      <trkpt lat="45.00766" lon="4.5112">
        <ele>466</ele>
        <time>2015-10-27T08:39:03Z</time>
      </trkpt>
      <trkpt lat="45.00774" lon="4.51122">
        <ele>466</ele>
        <time>2015-10-27T08:39:09Z</time>
      </trkpt>
      <trkpt lat="45.00783" lon="4.51125">
        <ele>467</ele>
        <time>2015-10-27T08:39:15Z</time>
      </trkpt>
      <trkpt lat="45.00789" lon="4.5113">
        <ele>468</ele>
        <time>2015-10-27T08:39:20Z</time>
      </trkpt>
      <trkpt lat="45.00798" lon="4.51132">
        <ele>468</ele>
        <time>2015-10-27T08:39:27Z</time>
      </trkpt>
      <trkpt lat="45.00805" lon="4.51133">
        <ele>468</ele>
        <time>2015-10-27T08:39:31Z</time>
      </trkpt>
      <trkpt lat="45.00815" lon="4.51135">
        <ele>469</ele>
        <time>2015-10-27T08:39:36Z</time>
      </trkpt>
      <trkpt lat="45.00822" lon="4.51134">
        <ele>465</ele>
        <time>2015-10-27T08:39:49Z</time>
      </trkpt>
      <trkpt lat="45.00829" lon="4.51127">
        <ele>465</ele>
        <time>2015-10-27T08:39:58Z</time>
      </trkpt>
      <trkpt lat="45.00836" lon="4.51119">
        <ele>465</ele>
        <time>2015-10-27T08:40:03Z</time>
      </trkpt>
      <trkpt lat="45.0084" lon="4.51116">
        <ele>464</ele>
        <time>2015-10-27T08:40:06Z</time>
      </trkpt>
      <trkpt lat="45.00849" lon="4.51111">
        <ele>466</ele>
        <time>2015-10-27T08:40:15Z</time>
      </trkpt>
      <trkpt lat="45.00858" lon="4.51107">
        <ele>464</ele>
        <time>2015-10-27T08:40:21Z</time>
      </trkpt>
      <trkpt lat="45.00866" lon="4.51102">
        <ele>463</ele>
        <time>2015-10-27T08:40:28Z</time>
      </trkpt>
      <trkpt lat="45.00872" lon="4.51093">
        <ele>463</ele>
        <time>2015-10-27T08:40:42Z</time>
      </trkpt>
      <trkpt lat="45.00878" lon="4.51094">
        <ele>464</ele>
        <time>2015-10-27T08:40:52Z</time>
      </trkpt>
      <trkpt lat="45.00887" lon="4.51095">
        <ele>464</ele>
        <time>2015-10-27T08:40:58Z</time>
      </trkpt>
      <trkpt lat="45.00894" lon="4.51094">
        <ele>465</ele>
        <time>2015-10-27T08:41:02Z</time>
      </trkpt>
      <trkpt lat="45.00901" lon="4.51096">
        <ele>465</ele>
        <time>2015-10-27T08:41:07Z</time>
      </trkpt>
      <trkpt lat="45.00908" lon="4.51094">
        <ele>466</ele>
        <time>2015-10-27T08:41:16Z</time>
      </trkpt>
      <trkpt lat="45.00914" lon="4.51088">
        <ele>466</ele>
        <time>2015-10-27T08:41:23Z</time>
      </trkpt>
      <trkpt lat="45.00923" lon="4.5109">
        <ele>466</ele>
        <time>2015-10-27T08:41:30Z</time>
      </trkpt>
      <trkpt lat="45.00928" lon="4.51091">
        <ele>466</ele>
        <time>2015-10-27T08:41:34Z</time>
      </trkpt>
      <trkpt lat="45.00938" lon="4.51091">
        <ele>466</ele>
        <time>2015-10-27T08:41:38Z</time>
      </trkpt>
      <trkpt lat="45.00944" lon="4.51089">
        <ele>465</ele>
        <time>2015-10-27T08:41:44Z</time>
      </trkpt>
      <trkpt lat="45.0095" lon="4.51086">
        <ele>466</ele>
        <time>2015-10-27T08:41:48Z</time>
      </trkpt>
      <trkpt lat="45.00957" lon="4.51083">
        <ele>466</ele>
        <time>2015-10-27T08:41:51Z</time>
      </trkpt>
      <trkpt lat="45.00967" lon="4.51079">
        <ele>466</ele>
        <time>2015-10-27T08:41:55Z</time>
      </trkpt>
      <trkpt lat="45.00979" lon="4.51076">
        <ele>467</ele>
        <time>2015-10-27T08:41:59Z</time>
      </trkpt>
      <trkpt lat="45.00986" lon="4.5107">
        <ele>468</ele>
        <time>2015-10-27T08:42:03Z</time>
      </trkpt>
      <trkpt lat="45.00994" lon="4.51067">
        <ele>469</ele>
        <time>2015-10-27T08:42:09Z</time>
      </trkpt>
      <trkpt lat="45.01002" lon="4.51064">
        <ele>470</ele>
        <time>2015-10-27T08:42:16Z</time>
      </trkpt>
      <trkpt lat="45.01011" lon="4.51062">
        <ele>470</ele>
        <time>2015-10-27T08:42:20Z</time>
      </trkpt>
      <trkpt lat="45.01021" lon="4.51063">
        <ele>471</ele>
        <time>2015-10-27T08:42:24Z</time>
      </trkpt>
      <trkpt lat="45.01029" lon="4.51062">
        <ele>472</ele>
        <time>2015-10-27T08:42:28Z</time>
      </trkpt>
      <trkpt lat="45.01035" lon="4.5106">
        <ele>472</ele>
        <time>2015-10-27T08:42:32Z</time>
      </trkpt>
      <trkpt lat="45.01043" lon="4.51062">
        <ele>471</ele>
        <time>2015-10-27T08:42:36Z</time>
      </trkpt>
      <trkpt lat="45.01049" lon="4.51066">
        <ele>471</ele>
        <time>2015-10-27T08:42:40Z</time>
      </trkpt>
      <trkpt lat="45.01056" lon="4.51069">
        <ele>471</ele>
        <time>2015-10-27T08:42:44Z</time>
      </trkpt>
      <trkpt lat="45.01063" lon="4.51074">
        <ele>471</ele>
        <time>2015-10-27T08:42:48Z</time>
      </trkpt>
      <trkpt lat="45.01071" lon="4.51078">
        <ele>472</ele>
        <time>2015-10-27T08:42:52Z</time>
      </trkpt>
      <trkpt lat="45.01078" lon="4.51084">
        <ele>473</ele>
        <time>2015-10-27T08:42:56Z</time>
      </trkpt>
      <trkpt lat="45.01084" lon="4.51088">
        <ele>473</ele>
        <time>2015-10-27T08:43:00Z</time>
      </trkpt>
      <trkpt lat="45.01089" lon="4.51094">
        <ele>473</ele>
        <time>2015-10-27T08:43:04Z</time>
      </trkpt>
      <trkpt lat="45.01094" lon="4.51103">
        <ele>473</ele>
        <time>2015-10-27T08:43:10Z</time>
      </trkpt>
      <trkpt lat="45.01101" lon="4.51111">
        <ele>474</ele>
        <time>2015-10-27T08:43:16Z</time>
      </trkpt>
      <trkpt lat="45.01108" lon="4.51115">
        <ele>475</ele>
        <time>2015-10-27T08:43:20Z</time>
      </trkpt>
      <trkpt lat="45.0111" lon="4.51126">
        <ele>475</ele>
        <time>2015-10-27T08:43:26Z</time>
      </trkpt>
      <trkpt lat="45.01116" lon="4.51133">
        <ele>476</ele>
        <time>2015-10-27T08:43:32Z</time>
      </trkpt>
      <trkpt lat="45.01122" lon="4.51142">
        <ele>476</ele>
        <time>2015-10-27T08:43:38Z</time>
      </trkpt>
      <trkpt lat="45.0113" lon="4.51146">
        <ele>477</ele>
        <time>2015-10-27T08:43:44Z</time>
      </trkpt>
      <trkpt lat="45.01136" lon="4.51154">
        <ele>478</ele>
        <time>2015-10-27T08:43:51Z</time>
      </trkpt>
      <trkpt lat="45.01142" lon="4.51164">
        <ele>479</ele>
        <time>2015-10-27T08:43:58Z</time>
      </trkpt>
      <trkpt lat="45.01151" lon="4.51166">
        <ele>480</ele>
        <time>2015-10-27T08:44:02Z</time>
      </trkpt>
      <trkpt lat="45.01157" lon="4.5117">
        <ele>481</ele>
        <time>2015-10-27T08:44:06Z</time>
      </trkpt>
      <trkpt lat="45.01165" lon="4.51174">
        <ele>482</ele>
        <time>2015-10-27T08:44:10Z</time>
      </trkpt>
      <trkpt lat="45.0117" lon="4.51181">
        <ele>482</ele>
        <time>2015-10-27T08:44:14Z</time>
      </trkpt>
      <trkpt lat="45.01175" lon="4.51188">
        <ele>483</ele>
        <time>2015-10-27T08:44:18Z</time>
      </trkpt>
      <trkpt lat="45.01183" lon="4.51194">
        <ele>484</ele>
        <time>2015-10-27T08:44:23Z</time>
      </trkpt>
      <trkpt lat="45.0119" lon="4.51202">
        <ele>486</ele>
        <time>2015-10-27T08:44:32Z</time>
      </trkpt>
      <trkpt lat="45.01195" lon="4.51206">
        <ele>487</ele>
        <time>2015-10-27T08:44:36Z</time>
      </trkpt>
      <trkpt lat="45.01201" lon="4.51214">
        <ele>488</ele>
        <time>2015-10-27T08:44:42Z</time>
      </trkpt>
      <trkpt lat="45.01206" lon="4.51221">
        <ele>489</ele>
        <time>2015-10-27T08:44:46Z</time>
      </trkpt>
      <trkpt lat="45.01211" lon="4.51229">
        <ele>491</ele>
        <time>2015-10-27T08:44:52Z</time>
      </trkpt>
      <trkpt lat="45.01216" lon="4.51235">
        <ele>492</ele>
        <time>2015-10-27T08:44:56Z</time>
      </trkpt>
      <trkpt lat="45.01219" lon="4.51245">
        <ele>493</ele>
        <time>2015-10-27T08:45:02Z</time>
      </trkpt>
      <trkpt lat="45.01222" lon="4.51253">
        <ele>495</ele>
        <time>2015-10-27T08:45:07Z</time>
      </trkpt>
      <trkpt lat="45.01228" lon="4.51262">
        <ele>496</ele>
        <time>2015-10-27T08:45:12Z</time>
      </trkpt>
      <trkpt lat="45.01235" lon="4.5127">
        <ele>497</ele>
        <time>2015-10-27T08:45:18Z</time>
      </trkpt>
      <trkpt lat="45.01237" lon="4.51279">
        <ele>498</ele>
        <time>2015-10-27T08:45:24Z</time>
      </trkpt>
      <trkpt lat="45.01244" lon="4.51286">
        <ele>499</ele>
        <time>2015-10-27T08:45:29Z</time>
      </trkpt>
      <trkpt lat="45.01249" lon="4.51294">
        <ele>500</ele>
        <time>2015-10-27T08:45:33Z</time>
      </trkpt>
      <trkpt lat="45.01253" lon="4.51306">
        <ele>500</ele>
        <time>2015-10-27T08:45:38Z</time>
      </trkpt>
      <trkpt lat="45.01256" lon="4.51317">
        <ele>502</ele>
        <time>2015-10-27T08:45:44Z</time>
      </trkpt>
      <trkpt lat="45.01262" lon="4.51323">
        <ele>502</ele>
        <time>2015-10-27T08:45:48Z</time>
      </trkpt>
      <trkpt lat="45.01267" lon="4.51332">
        <ele>503</ele>
        <time>2015-10-27T08:45:53Z</time>
      </trkpt>
      <trkpt lat="45.01271" lon="4.51343">
        <ele>504</ele>
        <time>2015-10-27T08:45:59Z</time>
      </trkpt>
      <trkpt lat="45.01273" lon="4.51355">
        <ele>505</ele>
        <time>2015-10-27T08:46:05Z</time>
      </trkpt>
      <trkpt lat="45.01273" lon="4.51365">
        <ele>506</ele>
        <time>2015-10-27T08:46:10Z</time>
      </trkpt>
      <trkpt lat="45.01277" lon="4.51375">
        <ele>508</ele>
        <time>2015-10-27T08:46:15Z</time>
      </trkpt>
      <trkpt lat="45.01281" lon="4.51384">
        <ele>508</ele>
        <time>2015-10-27T08:46:20Z</time>
      </trkpt>
      <trkpt lat="45.01287" lon="4.5139">
        <ele>509</ele>
        <time>2015-10-27T08:46:24Z</time>
      </trkpt>
      <trkpt lat="45.01293" lon="4.514">
        <ele>510</ele>
        <time>2015-10-27T08:46:30Z</time>
      </trkpt>
      <trkpt lat="45.01297" lon="4.51409">
        <ele>511</ele>
        <time>2015-10-27T08:46:35Z</time>
      </trkpt>
      <trkpt lat="45.01303" lon="4.51419">
        <ele>512</ele>
        <time>2015-10-27T08:46:40Z</time>
      </trkpt>
      <trkpt lat="45.01305" lon="4.51428">
        <ele>512</ele>
        <time>2015-10-27T08:46:44Z</time>
      </trkpt>
      <trkpt lat="45.01306" lon="4.5144">
        <ele>513</ele>
        <time>2015-10-27T08:46:50Z</time>
      </trkpt>
      <trkpt lat="45.01307" lon="4.5145">
        <ele>515</ele>
        <time>2015-10-27T08:46:56Z</time>
      </trkpt>
      <trkpt lat="45.0131" lon="4.51458">
        <ele>515</ele>
        <time>2015-10-27T08:47:01Z</time>
      </trkpt>
      <trkpt lat="45.01314" lon="4.51468">
        <ele>514</ele>
        <time>2015-10-27T08:47:05Z</time>
      </trkpt>
      <trkpt lat="45.01317" lon="4.51475">
        <ele>515</ele>
        <time>2015-10-27T08:47:09Z</time>
      </trkpt>
      <trkpt lat="45.01322" lon="4.51494">
        <ele>515</ele>
        <time>2015-10-27T08:47:19Z</time>
      </trkpt>
      <trkpt lat="45.01323" lon="4.51503">
        <ele>516</ele>
        <time>2015-10-27T08:47:34Z</time>
      </trkpt>
      <trkpt lat="45.01329" lon="4.51527">
        <ele>516</ele>
        <time>2015-10-27T08:47:38Z</time>
      </trkpt>
      <trkpt lat="45.01332" lon="4.51538">
        <ele>516</ele>
        <time>2015-10-27T08:47:45Z</time>
      </trkpt>
      <trkpt lat="45.01335" lon="4.51549">
        <ele>517</ele>
        <time>2015-10-27T08:47:50Z</time>
      </trkpt>
      <trkpt lat="45.0134" lon="4.51556">
        <ele>517</ele>
        <time>2015-10-27T08:47:54Z</time>
      </trkpt>
      <trkpt lat="45.01345" lon="4.51565">
        <ele>517</ele>
        <time>2015-10-27T08:48:00Z</time>
      </trkpt>
      <trkpt lat="45.01348" lon="4.51576">
        <ele>518</ele>
        <time>2015-10-27T08:48:08Z</time>
      </trkpt>
      <trkpt lat="45.01349" lon="4.51587">
        <ele>520</ele>
        <time>2015-10-27T08:48:16Z</time>
      </trkpt>
      <trkpt lat="45.0135" lon="4.51599">
        <ele>521</ele>
        <time>2015-10-27T08:48:22Z</time>
      </trkpt>
      <trkpt lat="45.01354" lon="4.5161">
        <ele>523</ele>
        <time>2015-10-27T08:48:32Z</time>
      </trkpt>
      <trkpt lat="45.01346" lon="4.51617">
        <ele>524</ele>
        <time>2015-10-27T08:48:46Z</time>
      </trkpt>
      <trkpt lat="45.0134" lon="4.51608">
        <ele>523</ele>
        <time>2015-10-27T08:49:56Z</time>
      </trkpt>
      <trkpt lat="45.01336" lon="4.516">
        <ele>524</ele>
        <time>2015-10-27T08:50:02Z</time>
      </trkpt>
      <trkpt lat="45.01329" lon="4.51594">
        <ele>524</ele>
        <time>2015-10-27T08:50:08Z</time>
      </trkpt>
      <trkpt lat="45.01323" lon="4.51586">
        <ele>525</ele>
        <time>2015-10-27T08:50:14Z</time>
      </trkpt>
      <trkpt lat="45.01317" lon="4.51578">
        <ele>526</ele>
        <time>2015-10-27T08:50:24Z</time>
      </trkpt>
      <trkpt lat="45.01313" lon="4.51574">
        <ele>527</ele>
        <time>2015-10-27T08:50:36Z</time>
      </trkpt>
      <trkpt lat="45.01307" lon="4.51567">
        <ele>527</ele>
        <time>2015-10-27T08:50:39Z</time>
      </trkpt>
      <trkpt lat="45.01302" lon="4.51559">
        <ele>527</ele>
        <time>2015-10-27T08:50:42Z</time>
      </trkpt>
      <trkpt lat="45.01295" lon="4.51548">
        <ele>528</ele>
        <time>2015-10-27T08:50:47Z</time>
      </trkpt>
      <trkpt lat="45.01289" lon="4.51539">
        <ele>527</ele>
        <time>2015-10-27T08:50:56Z</time>
      </trkpt>
      <trkpt lat="45.01285" lon="4.51533">
        <ele>527</ele>
        <time>2015-10-27T08:51:00Z</time>
      </trkpt>
      <trkpt lat="45.01282" lon="4.51528">
        <ele>527</ele>
        <time>2015-10-27T08:51:04Z</time>
      </trkpt>
      <trkpt lat="45.01265" lon="4.51506">
        <ele>526</ele>
        <time>2015-10-27T08:51:19Z</time>
      </trkpt>
      <trkpt lat="45.01262" lon="4.51502">
        <ele>526</ele>
        <time>2015-10-27T08:51:21Z</time>
      </trkpt>
      <trkpt lat="45.01237" lon="4.51484">
        <ele>526</ele>
        <time>2015-10-27T08:51:39Z</time>
      </trkpt>
      <trkpt lat="45.01231" lon="4.51478">
        <ele>526</ele>
        <time>2015-10-27T08:51:46Z</time>
      </trkpt>
      <trkpt lat="45.01224" lon="4.51472">
        <ele>526</ele>
        <time>2015-10-27T08:51:50Z</time>
      </trkpt>
      <trkpt lat="45.01217" lon="4.51467">
        <ele>526</ele>
        <time>2015-10-27T08:51:54Z</time>
      </trkpt>
      <trkpt lat="45.0121" lon="4.5146">
        <ele>526</ele>
        <time>2015-10-27T08:51:59Z</time>
      </trkpt>
      <trkpt lat="45.01206" lon="4.51454">
        <ele>526</ele>
        <time>2015-10-27T08:52:03Z</time>
      </trkpt>
      <trkpt lat="45.01198" lon="4.51446">
        <ele>526</ele>
        <time>2015-10-27T08:52:08Z</time>
      </trkpt>
      <trkpt lat="45.0119" lon="4.51445">
        <ele>526</ele>
        <time>2015-10-27T08:52:12Z</time>
      </trkpt>
      <trkpt lat="45.01183" lon="4.51441">
        <ele>526</ele>
        <time>2015-10-27T08:52:16Z</time>
      </trkpt>
      <trkpt lat="45.01175" lon="4.51435">
        <ele>526</ele>
        <time>2015-10-27T08:52:22Z</time>
      </trkpt>
      <trkpt lat="45.01167" lon="4.51431">
        <ele>526</ele>
        <time>2015-10-27T08:52:32Z</time>
      </trkpt>
      <trkpt lat="45.01159" lon="4.51429">
        <ele>526</ele>
        <time>2015-10-27T08:52:42Z</time>
      </trkpt>
      <trkpt lat="45.01153" lon="4.51432">
        <ele>527</ele>
        <time>2015-10-27T08:52:53Z</time>
      </trkpt>
      <trkpt lat="45.01152" lon="4.51447">
        <ele>529</ele>
        <time>2015-10-27T08:52:58Z</time>
      </trkpt>
      <trkpt lat="45.01146" lon="4.51455">
        <ele>529</ele>
        <time>2015-10-27T08:53:04Z</time>
      </trkpt>
      <trkpt lat="45.01141" lon="4.51463">
        <ele>529</ele>
        <time>2015-10-27T08:53:10Z</time>
      </trkpt>
      <trkpt lat="45.01138" lon="4.51473">
        <ele>530</ele>
        <time>2015-10-27T08:53:19Z</time>
      </trkpt>
      <trkpt lat="45.0113" lon="4.51475">
        <ele>532</ele>
        <time>2015-10-27T08:53:30Z</time>
      </trkpt>
      <trkpt lat="45.0113" lon="4.51486">
        <ele>532</ele>
        <time>2015-10-27T08:53:36Z</time>
      </trkpt>
      <trkpt lat="45.01128" lon="4.51496">
        <ele>532</ele>
        <time>2015-10-27T08:53:42Z</time>
      </trkpt>
      <trkpt lat="45.01122" lon="4.51502">
        <ele>533</ele>
        <time>2015-10-27T08:53:48Z</time>
      </trkpt>
      <trkpt lat="45.01117" lon="4.51513">
        <ele>534</ele>
        <time>2015-10-27T08:53:58Z</time>
      </trkpt>
      <trkpt lat="45.01112" lon="4.51523">
        <ele>535</ele>
        <time>2015-10-27T08:54:04Z</time>
      </trkpt>
      <trkpt lat="45.0111" lon="4.51525">
        <ele>535</ele>
        <time>2015-10-27T08:54:15Z</time>
      </trkpt>
      <trkpt lat="45.01113" lon="4.51545">
        <ele>538</ele>
        <time>2015-10-27T08:54:21Z</time>
      </trkpt>
      <trkpt lat="45.01115" lon="4.51553">
        <ele>539</ele>
        <time>2015-10-27T08:54:36Z</time>
      </trkpt>
      <trkpt lat="45.01118" lon="4.51582">
        <ele>544</ele>
        <time>2015-10-27T08:54:37Z</time>
      </trkpt>
      <trkpt lat="45.01125" lon="4.516">
        <ele>545</ele>
        <time>2015-10-27T08:54:50Z</time>
      </trkpt>
      <trkpt lat="45.01125" lon="4.5161">
        <ele>546</ele>
        <time>2015-10-27T08:55:00Z</time>
      </trkpt>
      <trkpt lat="45.01134" lon="4.51629">
        <ele>549</ele>
        <time>2015-10-27T08:55:04Z</time>
      </trkpt>
      <trkpt lat="45.01143" lon="4.5165">
        <ele>555</ele>
        <time>2015-10-27T08:55:20Z</time>
      </trkpt>
      <trkpt lat="45.01153" lon="4.51659">
        <ele>556</ele>
        <time>2015-10-27T08:55:24Z</time>
      </trkpt>
      <trkpt lat="45.01155" lon="4.51668">
        <ele>556</ele>
        <time>2015-10-27T08:55:30Z</time>
      </trkpt>
      <trkpt lat="45.01158" lon="4.51678">
        <ele>557</ele>
        <time>2015-10-27T08:55:36Z</time>
      </trkpt>
      <trkpt lat="45.0116" lon="4.51687">
        <ele>557</ele>
        <time>2015-10-27T08:55:41Z</time>
      </trkpt>
      <trkpt lat="45.01162" lon="4.51695">
        <ele>557</ele>
        <time>2015-10-27T08:55:46Z</time>
      </trkpt>
      <trkpt lat="45.01165" lon="4.51706">
        <ele>558</ele>
        <time>2015-10-27T08:55:51Z</time>
      </trkpt>
      <trkpt lat="45.01167" lon="4.51715">
        <ele>558</ele>
        <time>2015-10-27T08:55:57Z</time>
      </trkpt>
      <trkpt lat="45.0117" lon="4.51727">
        <ele>559</ele>
        <time>2015-10-27T08:56:04Z</time>
      </trkpt>
      <trkpt lat="45.01176" lon="4.51734">
        <ele>560</ele>
        <time>2015-10-27T08:56:11Z</time>
      </trkpt>
      <trkpt lat="45.0118" lon="4.51745">
        <ele>561</ele>
        <time>2015-10-27T08:56:18Z</time>
      </trkpt>
      <trkpt lat="45.01183" lon="4.51756">
        <ele>562</ele>
        <time>2015-10-27T08:56:27Z</time>
      </trkpt>
      <trkpt lat="45.01183" lon="4.51768">
        <ele>562</ele>
        <time>2015-10-27T08:56:33Z</time>
      </trkpt>
      <trkpt lat="45.01178" lon="4.51776">
        <ele>563</ele>
        <time>2015-10-27T08:56:36Z</time>
      </trkpt>
      <trkpt lat="45.01176" lon="4.51786">
        <ele>564</ele>
        <time>2015-10-27T08:56:41Z</time>
      </trkpt>
      <trkpt lat="45.01173" lon="4.51795">
        <ele>564</ele>
        <time>2015-10-27T08:56:45Z</time>
      </trkpt>
      <trkpt lat="45.01172" lon="4.51802">
        <ele>564</ele>
        <time>2015-10-27T08:56:48Z</time>
      </trkpt>
      <trkpt lat="45.01172" lon="4.51811">
        <ele>565</ele>
        <time>2015-10-27T08:56:52Z</time>
      </trkpt>
      <trkpt lat="45.0117" lon="4.5182">
        <ele>565</ele>
        <time>2015-10-27T08:56:56Z</time>
      </trkpt>
      <trkpt lat="45.01168" lon="4.51831">
        <ele>566</ele>
        <time>2015-10-27T08:57:01Z</time>
      </trkpt>
      <trkpt lat="45.01168" lon="4.5184">
        <ele>566</ele>
        <time>2015-10-27T08:57:06Z</time>
      </trkpt>
      <trkpt lat="45.01166" lon="4.5185">
        <ele>567</ele>
        <time>2015-10-27T08:57:10Z</time>
      </trkpt>
      <trkpt lat="45.01165" lon="4.51863">
        <ele>568</ele>
        <time>2015-10-27T08:57:14Z</time>
      </trkpt>
      <trkpt lat="45.01164" lon="4.51874">
        <ele>569</ele>
        <time>2015-10-27T08:57:20Z</time>
      </trkpt>
      <trkpt lat="45.0116" lon="4.51884">
        <ele>569</ele>
        <time>2015-10-27T08:57:24Z</time>
      </trkpt>
      <trkpt lat="45.01157" lon="4.51893">
        <ele>570</ele>
        <time>2015-10-27T08:57:28Z</time>
      </trkpt>
      <trkpt lat="45.01154" lon="4.51903">
        <ele>571</ele>
        <time>2015-10-27T08:57:32Z</time>
      </trkpt>
      <trkpt lat="45.01149" lon="4.51914">
        <ele>572</ele>
        <time>2015-10-27T08:57:38Z</time>
      </trkpt>
      <trkpt lat="45.01148" lon="4.51922">
        <ele>572</ele>
        <time>2015-10-27T08:57:42Z</time>
      </trkpt>
      <trkpt lat="45.01145" lon="4.51932">
        <ele>573</ele>
        <time>2015-10-27T08:57:46Z</time>
      </trkpt>
      <trkpt lat="45.0114" lon="4.51942">
        <ele>574</ele>
        <time>2015-10-27T08:57:53Z</time>
      </trkpt>
      <trkpt lat="45.01138" lon="4.5195">
        <ele>575</ele>
        <time>2015-10-27T08:57:58Z</time>
      </trkpt>
      <trkpt lat="45.01133" lon="4.51959">
        <ele>576</ele>
        <time>2015-10-27T08:58:03Z</time>
      </trkpt>
      <trkpt lat="45.01128" lon="4.51969">
        <ele>577</ele>
        <time>2015-10-27T08:58:08Z</time>
      </trkpt>
      <trkpt lat="45.01123" lon="4.51981">
        <ele>578</ele>
        <time>2015-10-27T08:58:13Z</time>
      </trkpt>
      <trkpt lat="45.0112" lon="4.51992">
        <ele>578</ele>
        <time>2015-10-27T08:58:18Z</time>
      </trkpt>
      <trkpt lat="45.01122" lon="4.52004">
        <ele>578</ele>
        <time>2015-10-27T08:58:25Z</time>
      </trkpt>
      <trkpt lat="45.01118" lon="4.52013">
        <ele>579</ele>
        <time>2015-10-27T08:58:31Z</time>
      </trkpt>
      <trkpt lat="45.01113" lon="4.5202">
        <ele>579</ele>
        <time>2015-10-27T08:58:36Z</time>
      </trkpt>
      <trkpt lat="45.01104" lon="4.52023">
        <ele>579</ele>
        <time>2015-10-27T08:58:43Z</time>
      </trkpt>
      <trkpt lat="45.01097" lon="4.52018">
        <ele>579</ele>
        <time>2015-10-27T08:58:48Z</time>
      </trkpt>
      <trkpt lat="45.01091" lon="4.52015">
        <ele>579</ele>
        <time>2015-10-27T08:58:54Z</time>
      </trkpt>
      <trkpt lat="45.01084" lon="4.52012">
        <ele>579</ele>
        <time>2015-10-27T08:58:58Z</time>
      </trkpt>
      <trkpt lat="45.01078" lon="4.52011">
        <ele>579</ele>
        <time>2015-10-27T08:59:02Z</time>
      </trkpt>
      <trkpt lat="45.01072" lon="4.52011">
        <ele>579</ele>
        <time>2015-10-27T08:59:05Z</time>
      </trkpt>
      <trkpt lat="45.01063" lon="4.52008">
        <ele>579</ele>
        <time>2015-10-27T08:59:12Z</time>
      </trkpt>
      <trkpt lat="45.01056" lon="4.52003">
        <ele>579</ele>
        <time>2015-10-27T08:59:18Z</time>
      </trkpt>
      <trkpt lat="45.01048" lon="4.52002">
        <ele>579</ele>
        <time>2015-10-27T08:59:24Z</time>
      </trkpt>
      <trkpt lat="45.01041" lon="4.51999">
        <ele>578</ele>
        <time>2015-10-27T08:59:30Z</time>
      </trkpt>
      <trkpt lat="45.01033" lon="4.51997">
        <ele>579</ele>
        <time>2015-10-27T08:59:34Z</time>
      </trkpt>
      <trkpt lat="45.01026" lon="4.51992">
        <ele>578</ele>
        <time>2015-10-27T08:59:38Z</time>
      </trkpt>
      <trkpt lat="45.01019" lon="4.5199">
        <ele>578</ele>
        <time>2015-10-27T08:59:42Z</time>
      </trkpt>
      <trkpt lat="45.01012" lon="4.51987">
        <ele>577</ele>
        <time>2015-10-27T08:59:48Z</time>
      </trkpt>
      <trkpt lat="45.01004" lon="4.51987">
        <ele>577</ele>
        <time>2015-10-27T08:59:56Z</time>
      </trkpt>
      <trkpt lat="45.00999" lon="4.51995">
        <ele>576</ele>
        <time>2015-10-27T09:00:01Z</time>
      </trkpt>
      <trkpt lat="45.00993" lon="4.52">
        <ele>576</ele>
        <time>2015-10-27T09:00:11Z</time>
      </trkpt>
      <trkpt lat="45.00985" lon="4.51998">
        <ele>576</ele>
        <time>2015-10-27T09:00:20Z</time>
      </trkpt>
      <trkpt lat="45.00982" lon="4.51996">
        <ele>577</ele>
        <time>2015-10-27T09:00:40Z</time>
      </trkpt>
      <trkpt lat="45.00975" lon="4.52011">
        <ele>576</ele>
        <time>2015-10-27T09:00:45Z</time>
      </trkpt>
      <trkpt lat="45.00969" lon="4.52018">
        <ele>576</ele>
        <time>2015-10-27T09:00:54Z</time>
      </trkpt>
      <trkpt lat="45.00966" lon="4.52027">
        <ele>576</ele>
        <time>2015-10-27T09:01:00Z</time>
      </trkpt>
      <trkpt lat="45.00966" lon="4.52038">
        <ele>576</ele>
        <time>2015-10-27T09:01:04Z</time>
      </trkpt>
      <trkpt lat="45.00965" lon="4.52047">
        <ele>576</ele>
        <time>2015-10-27T09:01:08Z</time>
      </trkpt>
      <trkpt lat="45.00957" lon="4.52064">
        <ele>577</ele>
        <time>2015-10-27T09:01:21Z</time>
      </trkpt>
      <trkpt lat="45.00957" lon="4.5207">
        <ele>576</ele>
        <time>2015-10-27T09:01:23Z</time>
      </trkpt>
      <trkpt lat="45.00958" lon="4.52083">
        <ele>576</ele>
        <time>2015-10-27T09:01:32Z</time>
      </trkpt>
      <trkpt lat="45.00957" lon="4.52094">
        <ele>575</ele>
        <time>2015-10-27T09:01:41Z</time>
      </trkpt>
      <trkpt lat="45.00954" lon="4.52105">
        <ele>575</ele>
        <time>2015-10-27T09:01:49Z</time>
      </trkpt>
      <trkpt lat="45.00953" lon="4.52117">
        <ele>575</ele>
        <time>2015-10-27T09:01:55Z</time>
      </trkpt>
      <trkpt lat="45.00953" lon="4.52129">
        <ele>575</ele>
        <time>2015-10-27T09:02:01Z</time>
      </trkpt>
      <trkpt lat="45.00952" lon="4.52142">
        <ele>575</ele>
        <time>2015-10-27T09:02:06Z</time>
      </trkpt>
      <trkpt lat="45.00948" lon="4.52158">
        <ele>575</ele>
        <time>2015-10-27T09:02:11Z</time>
      </trkpt>
      <trkpt lat="45.00946" lon="4.5217">
        <ele>575</ele>
        <time>2015-10-27T09:02:17Z</time>
      </trkpt>
      <trkpt lat="45.00945" lon="4.52182">
        <ele>575</ele>
        <time>2015-10-27T09:02:22Z</time>
      </trkpt>
      <trkpt lat="45.00946" lon="4.52191">
        <ele>575</ele>
        <time>2015-10-27T09:02:33Z</time>
      </trkpt>
      <trkpt lat="45.00946" lon="4.52216">
        <ele>575</ele>
        <time>2015-10-27T09:02:35Z</time>
      </trkpt>
      <trkpt lat="45.00947" lon="4.52225">
        <ele>575</ele>
        <time>2015-10-27T09:02:40Z</time>
      </trkpt>
      <trkpt lat="45.0095" lon="4.52231">
        <ele>575</ele>
        <time>2015-10-27T09:02:48Z</time>
      </trkpt>
      <trkpt lat="45.00949" lon="4.52262">
        <ele>574</ele>
        <time>2015-10-27T09:02:53Z</time>
      </trkpt>
      <trkpt lat="45.00948" lon="4.52273">
        <ele>573</ele>
        <time>2015-10-27T09:02:58Z</time>
      </trkpt>
      <trkpt lat="45.00947" lon="4.52284">
        <ele>573</ele>
        <time>2015-10-27T09:03:02Z</time>
      </trkpt>
      <trkpt lat="45.00946" lon="4.52295">
        <ele>573</ele>
        <time>2015-10-27T09:03:06Z</time>
      </trkpt>
      <trkpt lat="45.00944" lon="4.52307">
        <ele>573</ele>
        <time>2015-10-27T09:03:10Z</time>
      </trkpt>
      <trkpt lat="45.00942" lon="4.52318">
        <ele>573</ele>
        <time>2015-10-27T09:03:14Z</time>
      </trkpt>
      <trkpt lat="45.00939" lon="4.52326">
        <ele>571</ele>
        <time>2015-10-27T09:03:30Z</time>
      </trkpt>
      <trkpt lat="45.00934" lon="4.52335">
        <ele>569</ele>
        <time>2015-10-27T09:03:34Z</time>
      </trkpt>
      <trkpt lat="45.00934" lon="4.52344">
        <ele>569</ele>
        <time>2015-10-27T09:03:39Z</time>
      </trkpt>
      <trkpt lat="45.00931" lon="4.52358">
        <ele>569</ele>
        <time>2015-10-27T09:03:44Z</time>
      </trkpt>
      <trkpt lat="45.00925" lon="4.52365">
        <ele>569</ele>
        <time>2015-10-27T09:03:48Z</time>
      </trkpt>
      <trkpt lat="45.00922" lon="4.52372">
        <ele>569</ele>
        <time>2015-10-27T09:03:52Z</time>
      </trkpt>
      <trkpt lat="45.00918" lon="4.52381">
        <ele>569</ele>
        <time>2015-10-27T09:03:56Z</time>
      </trkpt>
      <trkpt lat="45.00917" lon="4.52389">
        <ele>568</ele>
        <time>2015-10-27T09:04:00Z</time>
      </trkpt>
      <trkpt lat="45.00913" lon="4.524">
        <ele>568</ele>
        <time>2015-10-27T09:04:06Z</time>
      </trkpt>
      <trkpt lat="45.00906" lon="4.52404">
        <ele>567</ele>
        <time>2015-10-27T09:04:10Z</time>
      </trkpt>
      <trkpt lat="45.009" lon="4.52402">
        <ele>565</ele>
        <time>2015-10-27T09:04:15Z</time>
      </trkpt>
      <trkpt lat="45.00897" lon="4.52392">
        <ele>563</ele>
        <time>2015-10-27T09:04:21Z</time>
      </trkpt>
      <trkpt lat="45.00892" lon="4.52385">
        <ele>562</ele>
        <time>2015-10-27T09:04:23Z</time>
      </trkpt>
      <trkpt lat="45.00888" lon="4.52375">
        <ele>559</ele>
        <time>2015-10-27T09:04:28Z</time>
      </trkpt>
      <trkpt lat="45.0088" lon="4.52365">
        <ele>551</ele>
        <time>2015-10-27T09:04:38Z</time>
      </trkpt>
      <trkpt lat="45.00874" lon="4.52368">
        <ele>550</ele>
        <time>2015-10-27T09:04:43Z</time>
      </trkpt>
      <trkpt lat="45.00869" lon="4.52377">
        <ele>548</ele>
        <time>2015-10-27T09:04:48Z</time>
      </trkpt>
      <trkpt lat="45.00864" lon="4.52385">
        <ele>547</ele>
        <time>2015-10-27T09:04:52Z</time>
      </trkpt>
      <trkpt lat="45.00857" lon="4.52391">
        <ele>546</ele>
        <time>2015-10-27T09:04:59Z</time>
      </trkpt>
      <trkpt lat="45.00849" lon="4.52396">
        <ele>546</ele>
        <time>2015-10-27T09:05:04Z</time>
      </trkpt>
      <trkpt lat="45.00842" lon="4.52395">
        <ele>545</ele>
        <time>2015-10-27T09:05:09Z</time>
      </trkpt>
      <trkpt lat="45.00838" lon="4.52389">
        <ele>545</ele>
        <time>2015-10-27T09:05:13Z</time>
      </trkpt>
      <trkpt lat="45.00832" lon="4.52379">
        <ele>543</ele>
        <time>2015-10-27T09:05:18Z</time>
      </trkpt>
      <trkpt lat="45.00829" lon="4.52371">
        <ele>542</ele>
        <time>2015-10-27T09:05:22Z</time>
      </trkpt>
      <trkpt lat="45.00823" lon="4.52363">
        <ele>542</ele>
        <time>2015-10-27T09:05:27Z</time>
      </trkpt>
      <trkpt lat="45.0082" lon="4.52356">
        <ele>541</ele>
        <time>2015-10-27T09:05:31Z</time>
      </trkpt>
      <trkpt lat="45.00815" lon="4.5235">
        <ele>541</ele>
        <time>2015-10-27T09:05:35Z</time>
      </trkpt>
      <trkpt lat="45.0081" lon="4.52342">
        <ele>540</ele>
        <time>2015-10-27T09:05:39Z</time>
      </trkpt>
      <trkpt lat="45.00805" lon="4.52334">
        <ele>540</ele>
        <time>2015-10-27T09:05:44Z</time>
      </trkpt>
      <trkpt lat="45.00801" lon="4.52325">
        <ele>539</ele>
        <time>2015-10-27T09:05:50Z</time>
      </trkpt>
      <trkpt lat="45.00796" lon="4.52315">
        <ele>538</ele>
        <time>2015-10-27T09:05:57Z</time>
      </trkpt>
      <trkpt lat="45.00792" lon="4.52309">
        <ele>537</ele>
        <time>2015-10-27T09:06:02Z</time>
      </trkpt>
      <trkpt lat="45.00784" lon="4.52306">
        <ele>537</ele>
        <time>2015-10-27T09:06:06Z</time>
      </trkpt>
      <trkpt lat="45.00779" lon="4.52304">
        <ele>536</ele>
        <time>2015-10-27T09:06:10Z</time>
      </trkpt>
      <trkpt lat="45.0077" lon="4.52299">
        <ele>536</ele>
        <time>2015-10-27T09:06:15Z</time>
      </trkpt>
      <trkpt lat="45.00764" lon="4.52295">
        <ele>535</ele>
        <time>2015-10-27T09:06:19Z</time>
      </trkpt>
      <trkpt lat="45.00758" lon="4.52288">
        <ele>535</ele>
        <time>2015-10-27T09:06:26Z</time>
      </trkpt>
      <trkpt lat="45.00752" lon="4.52283">
        <ele>534</ele>
        <time>2015-10-27T09:06:30Z</time>
      </trkpt>
      <trkpt lat="45.00744" lon="4.52279">
        <ele>534</ele>
        <time>2015-10-27T09:06:34Z</time>
      </trkpt>
      <trkpt lat="45.00736" lon="4.52278">
        <ele>534</ele>
        <time>2015-10-27T09:06:42Z</time>
      </trkpt>
      <trkpt lat="45.00727" lon="4.52278">
        <ele>533</ele>
        <time>2015-10-27T09:06:50Z</time>
      </trkpt>
      <trkpt lat="45.00725" lon="4.52267">
        <ele>533</ele>
        <time>2015-10-27T09:06:54Z</time>
      </trkpt>
      <trkpt lat="45.00723" lon="4.52255">
        <ele>533</ele>
        <time>2015-10-27T09:06:58Z</time>
      </trkpt>
      <trkpt lat="45.00719" lon="4.52247">
        <ele>532</ele>
        <time>2015-10-27T09:07:03Z</time>
      </trkpt>
      <trkpt lat="45.00713" lon="4.52238">
        <ele>532</ele>
        <time>2015-10-27T09:07:12Z</time>
      </trkpt>
      <trkpt lat="45.00709" lon="4.52231">
        <ele>532</ele>
        <time>2015-10-27T09:07:12Z</time>
      </trkpt>
      <trkpt lat="45.00706" lon="4.52224">
        <ele>532</ele>
        <time>2015-10-27T09:07:22Z</time>
      </trkpt>
      <trkpt lat="45.00697" lon="4.52209">
        <ele>532</ele>
        <time>2015-10-27T09:07:26Z</time>
      </trkpt>
      <trkpt lat="45.00694" lon="4.52198">
        <ele>531</ele>
        <time>2015-10-27T09:07:33Z</time>
      </trkpt>
      <trkpt lat="45.0069" lon="4.52188">
        <ele>530</ele>
        <time>2015-10-27T09:07:40Z</time>
      </trkpt>
      <trkpt lat="45.00688" lon="4.52178">
        <ele>529</ele>
        <time>2015-10-27T09:07:46Z</time>
      </trkpt>
      <trkpt lat="45.00686" lon="4.52168">
        <ele>528</ele>
        <time>2015-10-27T09:07:51Z</time>
      </trkpt>
      <trkpt lat="45.00679" lon="4.52157">
        <ele>528</ele>
        <time>2015-10-27T09:07:56Z</time>
      </trkpt>
      <trkpt lat="45.00674" lon="4.52149">
        <ele>528</ele>
        <time>2015-10-27T09:08:00Z</time>
      </trkpt>
      <trkpt lat="45.00666" lon="4.52142">
        <ele>528</ele>
        <time>2015-10-27T09:08:04Z</time>
      </trkpt>
      <trkpt lat="45.00659" lon="4.52131">
        <ele>528</ele>
        <time>2015-10-27T09:08:09Z</time>
      </trkpt>
      <trkpt lat="45.00652" lon="4.52126">
        <ele>528</ele>
        <time>2015-10-27T09:08:14Z</time>
      </trkpt>
      <trkpt lat="45.00644" lon="4.5212">
        <ele>529</ele>
        <time>2015-10-27T09:08:17Z</time>
      </trkpt>
      <trkpt lat="45.00635" lon="4.52114">
        <ele>529</ele>
        <time>2015-10-27T09:08:24Z</time>
      </trkpt>
      <trkpt lat="45.00625" lon="4.52111">
        <ele>529</ele>
        <time>2015-10-27T09:08:26Z</time>
      </trkpt>
      <trkpt lat="45.00619" lon="4.52109">
        <ele>528</ele>
        <time>2015-10-27T09:08:31Z</time>
      </trkpt>
      <trkpt lat="45.00611" lon="4.52106">
        <ele>529</ele>
        <time>2015-10-27T09:08:37Z</time>
      </trkpt>
      <trkpt lat="45.00613" lon="4.52095">
        <ele>528</ele>
        <time>2015-10-27T09:08:42Z</time>
      </trkpt>
      <trkpt lat="45.00616" lon="4.52084">
        <ele>527</ele>
        <time>2015-10-27T09:08:48Z</time>
      </trkpt>
      <trkpt lat="45.00614" lon="4.52072">
        <ele>527</ele>
        <time>2015-10-27T09:08:54Z</time>
      </trkpt>
      <trkpt lat="45.00614" lon="4.5206">
        <ele>526</ele>
        <time>2015-10-27T09:08:59Z</time>
      </trkpt>
      <trkpt lat="45.00613" lon="4.5205">
        <ele>526</ele>
        <time>2015-10-27T09:09:03Z</time>
      </trkpt>
      <trkpt lat="45.00613" lon="4.52039">
        <ele>525</ele>
        <time>2015-10-27T09:09:08Z</time>
      </trkpt>
      <trkpt lat="45.00614" lon="4.52029">
        <ele>524</ele>
        <time>2015-10-27T09:09:14Z</time>
      </trkpt>
      <trkpt lat="45.00611" lon="4.52018">
        <ele>522</ele>
        <time>2015-10-27T09:09:19Z</time>
      </trkpt>
      <trkpt lat="45.0061" lon="4.52006">
        <ele>521</ele>
        <time>2015-10-27T09:09:26Z</time>
      </trkpt>
      <trkpt lat="45.00612" lon="4.51995">
        <ele>520</ele>
        <time>2015-10-27T09:09:33Z</time>
      </trkpt>
      <trkpt lat="45.00615" lon="4.51986">
        <ele>518</ele>
        <time>2015-10-27T09:09:38Z</time>
      </trkpt>
      <trkpt lat="45.00617" lon="4.51977">
        <ele>517</ele>
        <time>2015-10-27T09:09:42Z</time>
      </trkpt>
      <trkpt lat="45.00624" lon="4.51969">
        <ele>517</ele>
        <time>2015-10-27T09:09:46Z</time>
      </trkpt>
      <trkpt lat="45.00627" lon="4.51958">
        <ele>516</ele>
        <time>2015-10-27T09:09:51Z</time>
      </trkpt>
      <trkpt lat="45.00627" lon="4.51946">
        <ele>516</ele>
        <time>2015-10-27T09:09:56Z</time>
      </trkpt>
      <trkpt lat="45.00627" lon="4.51939">
        <ele>516</ele>
        <time>2015-10-27T09:10:00Z</time>
      </trkpt>
      <trkpt lat="45.00626" lon="4.51926">
        <ele>515</ele>
        <time>2015-10-27T09:10:06Z</time>
      </trkpt>
      <trkpt lat="45.00625" lon="4.51919">
        <ele>515</ele>
        <time>2015-10-27T09:10:12Z</time>
      </trkpt>
      <trkpt lat="45.00623" lon="4.51912">
        <ele>515</ele>
        <time>2015-10-27T09:10:15Z</time>
      </trkpt>
      <trkpt lat="45.00616" lon="4.51902">
        <ele>515</ele>
        <time>2015-10-27T09:10:20Z</time>
      </trkpt>
      <trkpt lat="45.00612" lon="4.5189">
        <ele>516</ele>
        <time>2015-10-27T09:10:24Z</time>
      </trkpt>
      <trkpt lat="45.00608" lon="4.51883">
        <ele>516</ele>
        <time>2015-10-27T09:10:40Z</time>
      </trkpt>
      <trkpt lat="45.00578" lon="4.51857">
        <ele>525</ele>
        <time>2015-10-27T09:10:44Z</time>
      </trkpt>
      <trkpt lat="45.00571" lon="4.5185">
        <ele>526</ele>
        <time>2015-10-27T09:10:51Z</time>
      </trkpt>
      <trkpt lat="45.00562" lon="4.51846">
        <ele>527</ele>
        <time>2015-10-27T09:10:56Z</time>
      </trkpt>
      <trkpt lat="45.00554" lon="4.51843">
        <ele>529</ele>
        <time>2015-10-27T09:11:02Z</time>
      </trkpt>
      <trkpt lat="45.00548" lon="4.5184">
        <ele>529</ele>
        <time>2015-10-27T09:11:06Z</time>
      </trkpt>
      <trkpt lat="45.00543" lon="4.51837">
        <ele>530</ele>
        <time>2015-10-27T09:11:09Z</time>
      </trkpt>
      <trkpt lat="45.00535" lon="4.51832">
        <ele>532</ele>
        <time>2015-10-27T09:11:14Z</time>
      </trkpt>
      <trkpt lat="45.00529" lon="4.51828">
        <ele>533</ele>
        <time>2015-10-27T09:11:18Z</time>
      </trkpt>
      <trkpt lat="45.00521" lon="4.51825">
        <ele>535</ele>
        <time>2015-10-27T09:11:24Z</time>
      </trkpt>
      <trkpt lat="45.00513" lon="4.51823">
        <ele>536</ele>
        <time>2015-10-27T09:11:31Z</time>
      </trkpt>
      <trkpt lat="45.00506" lon="4.51827">
        <ele>537</ele>
        <time>2015-10-27T09:11:36Z</time>
      </trkpt>
      <trkpt lat="45.00498" lon="4.51831">
        <ele>538</ele>
        <time>2015-10-27T09:11:42Z</time>
      </trkpt>
      <trkpt lat="45.00494" lon="4.5184">
        <ele>539</ele>
        <time>2015-10-27T09:11:48Z</time>
      </trkpt>
      <trkpt lat="45.00489" lon="4.51848">
        <ele>541</ele>
        <time>2015-10-27T09:11:52Z</time>
      </trkpt>
      <trkpt lat="45.00484" lon="4.51856">
        <ele>541</ele>
        <time>2015-10-27T09:11:56Z</time>
      </trkpt>
      <trkpt lat="45.00478" lon="4.51862">
        <ele>543</ele>
        <time>2015-10-27T09:12:07Z</time>
      </trkpt>
      <trkpt lat="45.00468" lon="4.51872">
        <ele>544</ele>
        <time>2015-10-27T09:12:07Z</time>
      </trkpt>
      <trkpt lat="45.00461" lon="4.51878">
        <ele>546</ele>
        <time>2015-10-27T09:12:12Z</time>
      </trkpt>
      <trkpt lat="45.00446" lon="4.51892">
        <ele>550</ele>
        <time>2015-10-27T09:12:23Z</time>
      </trkpt>
      <trkpt lat="45.00442" lon="4.51903">
        <ele>550</ele>
        <time>2015-10-27T09:12:30Z</time>
      </trkpt>
      <trkpt lat="45.00436" lon="4.51911">
        <ele>550</ele>
        <time>2015-10-27T09:12:36Z</time>
      </trkpt>
      <trkpt lat="45.00431" lon="4.51915">
        <ele>551</ele>
        <time>2015-10-27T09:12:40Z</time>
      </trkpt>
      <trkpt lat="45.00424" lon="4.51914">
        <ele>551</ele>
        <time>2015-10-27T09:12:44Z</time>
      </trkpt>
      <trkpt lat="45.00418" lon="4.51914">
        <ele>551</ele>
        <time>2015-10-27T09:12:48Z</time>
      </trkpt>
      <trkpt lat="45.0041" lon="4.51911">
        <ele>552</ele>
        <time>2015-10-27T09:12:54Z</time>
      </trkpt>
      <trkpt lat="45.00402" lon="4.51909">
        <ele>553</ele>
        <time>2015-10-27T09:13:03Z</time>
      </trkpt>
      <trkpt lat="45.00394" lon="4.5191">
        <ele>552</ele>
        <time>2015-10-27T09:13:46Z</time>
      </trkpt>
      <trkpt lat="45.00388" lon="4.51902">
        <ele>552</ele>
        <time>2015-10-27T09:13:52Z</time>
      </trkpt>
      <trkpt lat="45.00384" lon="4.51897">
        <ele>552</ele>
        <time>2015-10-27T09:13:56Z</time>
      </trkpt>
      <trkpt lat="45.00384" lon="4.51903">
        <ele>552</ele>
        <time>2015-10-27T09:14:13Z</time>
      </trkpt>
      <trkpt lat="45.00395" lon="4.51912">
        <ele>551</ele>
        <time>2015-10-27T09:14:24Z</time>
      </trkpt>
      <trkpt lat="45.00393" lon="4.51905">
        <ele>551</ele>
        <time>2015-10-27T09:14:40Z</time>
      </trkpt>
      <trkpt lat="45.00387" lon="4.51895">
        <ele>551</ele>
        <time>2015-10-27T09:14:44Z</time>
      </trkpt>
      <trkpt lat="45.00377" lon="4.51886">
        <ele>550</ele>
        <time>2015-10-27T09:14:48Z</time>
      </trkpt>
      <trkpt lat="45.00364" lon="4.51881">
        <ele>550</ele>
        <time>2015-10-27T09:14:53Z</time>
      </trkpt>
      <trkpt lat="45.00351" lon="4.51886">
        <ele>550</ele>
        <time>2015-10-27T09:14:58Z</time>
      </trkpt>
      <trkpt lat="45.00343" lon="4.5189">
        <ele>550</ele>
        <time>2015-10-27T09:15:01Z</time>
      </trkpt>
      <trkpt lat="45.00334" lon="4.51897">
        <ele>550</ele>
        <time>2015-10-27T09:15:06Z</time>
      </trkpt>
      <trkpt lat="45.00328" lon="4.51899">
        <ele>550</ele>
        <time>2015-10-27T09:15:09Z</time>
      </trkpt>
      <trkpt lat="45.00321" lon="4.519">
        <ele>551</ele>
        <time>2015-10-27T09:15:14Z</time>
      </trkpt>
      <trkpt lat="45.00314" lon="4.51906">
        <ele>551</ele>
        <time>2015-10-27T09:15:19Z</time>
      </trkpt>
      <trkpt lat="45.00305" lon="4.51909">
        <ele>551</ele>
        <time>2015-10-27T09:15:24Z</time>
      </trkpt>
      <trkpt lat="45.00297" lon="4.51912">
        <ele>551</ele>
        <time>2015-10-27T09:15:29Z</time>
      </trkpt>
      <trkpt lat="45.00289" lon="4.51915">
        <ele>551</ele>
        <time>2015-10-27T09:15:34Z</time>
      </trkpt>
      <trkpt lat="45.00282" lon="4.51918">
        <ele>551</ele>
        <time>2015-10-27T09:15:39Z</time>
      </trkpt>
      <trkpt lat="45.00276" lon="4.51922">
        <ele>551</ele>
        <time>2015-10-27T09:15:45Z</time>
      </trkpt>
      <trkpt lat="45.00271" lon="4.51927">
        <ele>551</ele>
        <time>2015-10-27T09:15:49Z</time>
      </trkpt>
      <trkpt lat="45.00262" lon="4.51935">
        <ele>551</ele>
        <time>2015-10-27T09:15:55Z</time>
      </trkpt>
      <trkpt lat="45.00255" lon="4.51941">
        <ele>550</ele>
        <time>2015-10-27T09:16:01Z</time>
      </trkpt>
      <trkpt lat="45.00251" lon="4.51948">
        <ele>550</ele>
        <time>2015-10-27T09:16:05Z</time>
      </trkpt>
      <trkpt lat="45.00245" lon="4.51954">
        <ele>550</ele>
        <time>2015-10-27T09:16:09Z</time>
      </trkpt>
      <trkpt lat="45.00239" lon="4.51961">
        <ele>549</ele>
        <time>2015-10-27T09:16:14Z</time>
      </trkpt>
      <trkpt lat="45.00233" lon="4.51962">
        <ele>549</ele>
        <time>2015-10-27T09:16:20Z</time>
      </trkpt>
      <trkpt lat="45.00227" lon="4.51963">
        <ele>548</ele>
        <time>2015-10-27T09:16:24Z</time>
      </trkpt>
      <trkpt lat="45.00218" lon="4.51964">
        <ele>547</ele>
        <time>2015-10-27T09:16:30Z</time>
      </trkpt>
      <trkpt lat="45.00209" lon="4.51962">
        <ele>546</ele>
        <time>2015-10-27T09:16:34Z</time>
      </trkpt>
      <trkpt lat="45.00202" lon="4.5196">
        <ele>546</ele>
        <time>2015-10-27T09:16:37Z</time>
      </trkpt>
      <trkpt lat="45.00193" lon="4.51961">
        <ele>545</ele>
        <time>2015-10-27T09:16:43Z</time>
      </trkpt>
      <trkpt lat="45.00187" lon="4.51959">
        <ele>544</ele>
        <time>2015-10-27T09:16:48Z</time>
      </trkpt>
      <trkpt lat="45.00178" lon="4.51959">
        <ele>543</ele>
        <time>2015-10-27T09:16:56Z</time>
      </trkpt>
      <trkpt lat="45.00171" lon="4.51958">
        <ele>543</ele>
        <time>2015-10-27T09:17:00Z</time>
      </trkpt>
      <trkpt lat="45.00162" lon="4.51954">
        <ele>542</ele>
        <time>2015-10-27T09:17:05Z</time>
      </trkpt>
      <trkpt lat="45.00155" lon="4.5195">
        <ele>541</ele>
        <time>2015-10-27T09:17:10Z</time>
      </trkpt>
      <trkpt lat="45.00146" lon="4.51947">
        <ele>540</ele>
        <time>2015-10-27T09:17:17Z</time>
      </trkpt>
      <trkpt lat="45.00139" lon="4.51949">
        <ele>539</ele>
        <time>2015-10-27T09:17:24Z</time>
      </trkpt>
      <trkpt lat="45.00132" lon="4.51953">
        <ele>538</ele>
        <time>2015-10-27T09:17:30Z</time>
      </trkpt>
      <trkpt lat="45.00125" lon="4.51959">
        <ele>537</ele>
        <time>2015-10-27T09:17:39Z</time>
      </trkpt>
      <trkpt lat="45.00117" lon="4.51966">
        <ele>535</ele>
        <time>2015-10-27T09:17:47Z</time>
      </trkpt>
      <trkpt lat="45.00112" lon="4.51973">
        <ele>534</ele>
        <time>2015-10-27T09:17:53Z</time>
      </trkpt>
      <trkpt lat="45.00108" lon="4.51978">
        <ele>533</ele>
        <time>2015-10-27T09:17:57Z</time>
      </trkpt>
      <trkpt lat="45.00098" lon="4.51989">
        <ele>533</ele>
        <time>2015-10-27T09:18:02Z</time>
      </trkpt>
      <trkpt lat="45.00092" lon="4.51981">
        <ele>533</ele>
        <time>2015-10-27T09:18:07Z</time>
      </trkpt>
      <trkpt lat="45.00087" lon="4.51971">
        <ele>532</ele>
        <time>2015-10-27T09:18:12Z</time>
      </trkpt>
      <trkpt lat="45.00086" lon="4.51964">
        <ele>531</ele>
        <time>2015-10-27T09:18:15Z</time>
      </trkpt>
      <trkpt lat="45.00083" lon="4.51955">
        <ele>530</ele>
        <time>2015-10-27T09:18:20Z</time>
      </trkpt>
      <trkpt lat="45.00077" lon="4.51946">
        <ele>528</ele>
        <time>2015-10-27T09:18:25Z</time>
      </trkpt>
      <trkpt lat="45.00076" lon="4.51935">
        <ele>527</ele>
        <time>2015-10-27T09:18:30Z</time>
      </trkpt>
      <trkpt lat="45.00079" lon="4.51924">
        <ele>526</ele>
        <time>2015-10-27T09:18:35Z</time>
      </trkpt>
      <trkpt lat="45.00084" lon="4.51914">
        <ele>525</ele>
        <time>2015-10-27T09:18:41Z</time>
      </trkpt>
      <trkpt lat="45.00091" lon="4.51907">
        <ele>523</ele>
        <time>2015-10-27T09:18:47Z</time>
      </trkpt>
      <trkpt lat="45.00095" lon="4.519">
        <ele>522</ele>
        <time>2015-10-27T09:18:52Z</time>
      </trkpt>
      <trkpt lat="45.00099" lon="4.51891">
        <ele>521</ele>
        <time>2015-10-27T09:18:56Z</time>
      </trkpt>
      <trkpt lat="45.00103" lon="4.51882">
        <ele>520</ele>
        <time>2015-10-27T09:19:00Z</time>
      </trkpt>
      <trkpt lat="45.00107" lon="4.51873">
        <ele>519</ele>
        <time>2015-10-27T09:19:04Z</time>
      </trkpt>
      <trkpt lat="45.00108" lon="4.51864">
        <ele>518</ele>
        <time>2015-10-27T09:19:08Z</time>
      </trkpt>
      <trkpt lat="45.00111" lon="4.51854">
        <ele>517</ele>
        <time>2015-10-27T09:19:14Z</time>
      </trkpt>
      <trkpt lat="45.00116" lon="4.51844">
        <ele>515</ele>
        <time>2015-10-27T09:19:19Z</time>
      </trkpt>
      <trkpt lat="45.00121" lon="4.51833">
        <ele>513</ele>
        <time>2015-10-27T09:19:24Z</time>
      </trkpt>
      <trkpt lat="45.00124" lon="4.51823">
        <ele>512</ele>
        <time>2015-10-27T09:19:28Z</time>
      </trkpt>
      <trkpt lat="45.00126" lon="4.51814">
        <ele>511</ele>
        <time>2015-10-27T09:19:32Z</time>
      </trkpt>
      <trkpt lat="45.00129" lon="4.51807">
        <ele>510</ele>
        <time>2015-10-27T09:19:36Z</time>
      </trkpt>
      <trkpt lat="45.0013" lon="4.51797">
        <ele>509</ele>
        <time>2015-10-27T09:19:40Z</time>
      </trkpt>
      <trkpt lat="45.00136" lon="4.51788">
        <ele>507</ele>
        <time>2015-10-27T09:19:46Z</time>
      </trkpt>
      <trkpt lat="45.00138" lon="4.51776">
        <ele>505</ele>
        <time>2015-10-27T09:19:52Z</time>
      </trkpt>
      <trkpt lat="45.0014" lon="4.51766">
        <ele>504</ele>
        <time>2015-10-27T09:19:57Z</time>
      </trkpt>
      <trkpt lat="45.00146" lon="4.51757">
        <ele>502</ele>
        <time>2015-10-27T09:20:04Z</time>
      </trkpt>
      <trkpt lat="45.00153" lon="4.51749">
        <ele>500</ele>
        <time>2015-10-27T09:20:11Z</time>
      </trkpt>
      <trkpt lat="45.00155" lon="4.51748">
        <ele>500</ele>
        <time>2015-10-27T09:20:12Z</time>
      </trkpt>
      <trkpt lat="45.00166" lon="4.51726">
        <ele>494</ele>
        <time>2015-10-27T09:20:27Z</time>
      </trkpt>
      <trkpt lat="45.00168" lon="4.51722">
        <ele>493</ele>
        <time>2015-10-27T09:20:28Z</time>
      </trkpt>
      <trkpt lat="45.00175" lon="4.51715">
        <ele>491</ele>
        <time>2015-10-27T09:20:34Z</time>
      </trkpt>
      <trkpt lat="45.00179" lon="4.51709">
        <ele>490</ele>
        <time>2015-10-27T09:20:36Z</time>
      </trkpt>
      <trkpt lat="45.00185" lon="4.51703">
        <ele>488</ele>
        <time>2015-10-27T09:20:44Z</time>
      </trkpt>
      <trkpt lat="45.00188" lon="4.51701">
        <ele>487</ele>
        <time>2015-10-27T09:20:54Z</time>
      </trkpt>
      <trkpt lat="45.00203" lon="4.51691">
        <ele>483</ele>
        <time>2015-10-27T09:20:58Z</time>
      </trkpt>
      <trkpt lat="45.00204" lon="4.51687">
        <ele>482</ele>
        <time>2015-10-27T09:21:00Z</time>
      </trkpt>
      <trkpt lat="45.00214" lon="4.51668">
        <ele>483</ele>
        <time>2015-10-27T09:21:10Z</time>
      </trkpt>
      <trkpt lat="45.00224" lon="4.51665">
        <ele>482</ele>
        <time>2015-10-27T09:21:15Z</time>
      </trkpt>
      <trkpt lat="45.0023" lon="4.51661">
        <ele>480</ele>
        <time>2015-10-27T09:21:21Z</time>
      </trkpt>
      <trkpt lat="45.00237" lon="4.51657">
        <ele>479</ele>
        <time>2015-10-27T09:21:25Z</time>
      </trkpt>
      <trkpt lat="45.00243" lon="4.5165">
        <ele>478</ele>
        <time>2015-10-27T09:21:32Z</time>
      </trkpt>
      <trkpt lat="45.0025" lon="4.51643">
        <ele>478</ele>
        <time>2015-10-27T09:21:39Z</time>
      </trkpt>
      <trkpt lat="45.00256" lon="4.51649">
        <ele>478</ele>
        <time>2015-10-27T09:21:44Z</time>
      </trkpt>
      <trkpt lat="45.00259" lon="4.51651">
        <ele>478</ele>
        <time>2015-10-27T09:21:46Z</time>
      </trkpt>
      <trkpt lat="45.00264" lon="4.51667">
        <ele>477</ele>
        <time>2015-10-27T09:21:56Z</time>
      </trkpt>
      <trkpt lat="45.00265" lon="4.51672">
        <ele>476</ele>
        <time>2015-10-27T09:22:07Z</time>
      </trkpt>
      <trkpt lat="45.0029" lon="4.51661">
        <ele>475</ele>
        <time>2015-10-27T09:22:26Z</time>
      </trkpt>
      <trkpt lat="45.00297" lon="4.51657">
        <ele>476</ele>
        <time>2015-10-27T09:22:29Z</time>
      </trkpt>
      <trkpt lat="45.00302" lon="4.51649">
        <ele>476</ele>
        <time>2015-10-27T09:22:38Z</time>
      </trkpt>
      <trkpt lat="45.00309" lon="4.51649">
        <ele>476</ele>
        <time>2015-10-27T09:22:45Z</time>
      </trkpt>
      <trkpt lat="45.0032" lon="4.5165">
        <ele>477</ele>
        <time>2015-10-27T09:22:50Z</time>
      </trkpt>
      <trkpt lat="45.00323" lon="4.51653">
        <ele>477</ele>
        <time>2015-10-27T09:23:04Z</time>
      </trkpt>
      <trkpt lat="45.00334" lon="4.51657">
        <ele>478</ele>
        <time>2015-10-27T09:23:07Z</time>
      </trkpt>
      <trkpt lat="45.00335" lon="4.51658">
        <ele>478</ele>
        <time>2015-10-27T09:23:27Z</time>
      </trkpt>
      <trkpt lat="45.00345" lon="4.51639">
        <ele>475</ele>
        <time>2015-10-27T09:23:29Z</time>
      </trkpt>
      <trkpt lat="45.00344" lon="4.51629">
        <ele>473</ele>
        <time>2015-10-27T09:23:35Z</time>
      </trkpt>
      <trkpt lat="45.00344" lon="4.5162">
        <ele>472</ele>
        <time>2015-10-27T09:23:42Z</time>
      </trkpt>
      <trkpt lat="45.00345" lon="4.51612">
        <ele>472</ele>
        <time>2015-10-27T09:23:45Z</time>
      </trkpt>
      <trkpt lat="45.00343" lon="4.51602">
        <ele>471</ele>
        <time>2015-10-27T09:23:49Z</time>
      </trkpt>
      <trkpt lat="45.00344" lon="4.51591">
        <ele>470</ele>
        <time>2015-10-27T09:23:54Z</time>
      </trkpt>
      <trkpt lat="45.00346" lon="4.51582">
        <ele>470</ele>
        <time>2015-10-27T09:23:58Z</time>
      </trkpt>
      <trkpt lat="45.00345" lon="4.5157">
        <ele>469</ele>
        <time>2015-10-27T09:24:02Z</time>
      </trkpt>
      <trkpt lat="45.00342" lon="4.51557">
        <ele>468</ele>
        <time>2015-10-27T09:24:06Z</time>
      </trkpt>
      <trkpt lat="45.00345" lon="4.51548">
        <ele>467</ele>
        <time>2015-10-27T09:24:10Z</time>
      </trkpt>
      <trkpt lat="45.00348" lon="4.5154">
        <ele>466</ele>
        <time>2015-10-27T09:24:14Z</time>
      </trkpt>
      <trkpt lat="45.00349" lon="4.51528">
        <ele>465</ele>
        <time>2015-10-27T09:24:18Z</time>
      </trkpt>
      <trkpt lat="45.00352" lon="4.51515">
        <ele>464</ele>
        <time>2015-10-27T09:24:22Z</time>
      </trkpt>
      <trkpt lat="45.00352" lon="4.51506">
        <ele>464</ele>
        <time>2015-10-27T09:24:25Z</time>
      </trkpt>
      <trkpt lat="45.00354" lon="4.51496">
        <ele>463</ele>
        <time>2015-10-27T09:24:30Z</time>
      </trkpt>
      <trkpt lat="45.00358" lon="4.51485">
        <ele>462</ele>
        <time>2015-10-27T09:24:35Z</time>
      </trkpt>
      <trkpt lat="45.00366" lon="4.51473">
        <ele>460</ele>
        <time>2015-10-27T09:24:39Z</time>
      </trkpt>
      <trkpt lat="45.00372" lon="4.51466">
        <ele>460</ele>
        <time>2015-10-27T09:24:42Z</time>
      </trkpt>
      <trkpt lat="45.00377" lon="4.51457">
        <ele>460</ele>
        <time>2015-10-27T09:24:45Z</time>
      </trkpt>
      <trkpt lat="45.00391" lon="4.51449">
        <ele>461</ele>
        <time>2015-10-27T09:24:50Z</time>
      </trkpt>
      <trkpt lat="45.00399" lon="4.51441">
        <ele>462</ele>
        <time>2015-10-27T09:24:54Z</time>
      </trkpt>
      <trkpt lat="45.00404" lon="4.51431">
        <ele>461</ele>
        <time>2015-10-27T09:24:59Z</time>
      </trkpt>
      <trkpt lat="45.00411" lon="4.51423">
        <ele>460</ele>
        <time>2015-10-27T09:25:04Z</time>
      </trkpt>
      <trkpt lat="45.00416" lon="4.51417">
        <ele>459</ele>
        <time>2015-10-27T09:25:08Z</time>
      </trkpt>
      <trkpt lat="45.00422" lon="4.51412">
        <ele>459</ele>
        <time>2015-10-27T09:25:12Z</time>
      </trkpt>
      <trkpt lat="45.00427" lon="4.51408">
        <ele>458</ele>
        <time>2015-10-27T09:25:15Z</time>
      </trkpt>
      <trkpt lat="45.00433" lon="4.51398">
        <ele>458</ele>
        <time>2015-10-27T09:25:20Z</time>
      </trkpt>
      <trkpt lat="45.00436" lon="4.5139">
        <ele>458</ele>
        <time>2015-10-27T09:25:24Z</time>
      </trkpt>
      <trkpt lat="45.00439" lon="4.51382">
        <ele>458</ele>
        <time>2015-10-27T09:25:28Z</time>
      </trkpt>
      <trkpt lat="45.00443" lon="4.51375">
        <ele>457</ele>
        <time>2015-10-27T09:25:32Z</time>
      </trkpt>
      <trkpt lat="45.00449" lon="4.51372">
        <ele>457</ele>
        <time>2015-10-27T09:25:36Z</time>
      </trkpt>
      <trkpt lat="45.00454" lon="4.51363">
        <ele>457</ele>
        <time>2015-10-27T09:25:41Z</time>
      </trkpt>
      <trkpt lat="45.00454" lon="4.51352">
        <ele>456</ele>
        <time>2015-10-27T09:25:51Z</time>
      </trkpt>
      <trkpt lat="45.00447" lon="4.51351">
        <ele>458</ele>
        <time>2015-10-27T09:26:00Z</time>
      </trkpt>
      <trkpt lat="45.00442" lon="4.51357">
        <ele>458</ele>
        <time>2015-10-27T09:26:04Z</time>
      </trkpt>
      <trkpt lat="45.00437" lon="4.51361">
        <ele>458</ele>
        <time>2015-10-27T09:26:08Z</time>
      </trkpt>
      <trkpt lat="45.00434" lon="4.51364">
        <ele>458</ele>
        <time>2015-10-27T09:26:10Z</time>
      </trkpt>
      <trkpt lat="45.0042" lon="4.51378">
        <ele>459</ele>
        <time>2015-10-27T09:26:19Z</time>
      </trkpt>
      <trkpt lat="45.00416" lon="4.51386">
        <ele>458</ele>
        <time>2015-10-27T09:26:28Z</time>
      </trkpt>
      <trkpt lat="45.00412" lon="4.51394">
        <ele>458</ele>
        <time>2015-10-27T09:26:33Z</time>
      </trkpt>
      <trkpt lat="45.00407" lon="4.51399">
        <ele>457</ele>
        <time>2015-10-27T09:26:36Z</time>
      </trkpt>
      <trkpt lat="45.00403" lon="4.5141">
        <ele>457</ele>
        <time>2015-10-27T09:26:41Z</time>
      </trkpt>
      <trkpt lat="45.00398" lon="4.51416">
        <ele>457</ele>
        <time>2015-10-27T09:26:45Z</time>
      </trkpt>
      <trkpt lat="45.0039" lon="4.51418">
        <ele>458</ele>
        <time>2015-10-27T09:26:50Z</time>
      </trkpt>
      <trkpt lat="45.00383" lon="4.51423">
        <ele>458</ele>
        <time>2015-10-27T09:26:56Z</time>
      </trkpt>
      <trkpt lat="45.00376" lon="4.51428">
        <ele>458</ele>
        <time>2015-10-27T09:27:02Z</time>
      </trkpt>
      <trkpt lat="45.00369" lon="4.51435">
        <ele>458</ele>
        <time>2015-10-27T09:27:08Z</time>
      </trkpt>
      <trkpt lat="45.00364" lon="4.51445">
        <ele>458</ele>
        <time>2015-10-27T09:27:17Z</time>
      </trkpt>
      <trkpt lat="45.00356" lon="4.51447">
        <ele>458</ele>
        <time>2015-10-27T09:27:27Z</time>
      </trkpt>
      <trkpt lat="45.0035" lon="4.51446">
        <ele>458</ele>
        <time>2015-10-27T09:27:35Z</time>
      </trkpt>
      <trkpt lat="45.00342" lon="4.51443">
        <ele>458</ele>
        <time>2015-10-27T09:27:38Z</time>
      </trkpt>
      <trkpt lat="45.00334" lon="4.51434">
        <ele>458</ele>
        <time>2015-10-27T09:27:43Z</time>
      </trkpt>
      <trkpt lat="45.00329" lon="4.51435">
        <ele>458</ele>
        <time>2015-10-27T09:27:54Z</time>
      </trkpt>
      <trkpt lat="45.00315" lon="4.51416">
        <ele>451</ele>
        <time>2015-10-27T09:27:57Z</time>
      </trkpt>
      <trkpt lat="45.00311" lon="4.51411">
        <ele>450</ele>
        <time>2015-10-27T09:28:02Z</time>
      </trkpt>
      <trkpt lat="45.00308" lon="4.51407">
        <ele>450</ele>
        <time>2015-10-27T09:28:03Z</time>
      </trkpt>
      <trkpt lat="45.00302" lon="4.5137">
        <ele>438</ele>
        <time>2015-10-27T09:28:21Z</time>
      </trkpt>
      <trkpt lat="45.003" lon="4.5136">
        <ele>436</ele>
        <time>2015-10-27T09:28:28Z</time>
      </trkpt>
      <trkpt lat="45.00299" lon="4.51348">
        <ele>435</ele>
        <time>2015-10-27T09:28:35Z</time>
      </trkpt>
      <trkpt lat="45.00295" lon="4.51336">
        <ele>433</ele>
        <time>2015-10-27T09:28:39Z</time>
      </trkpt>
      <trkpt lat="45.0029" lon="4.51325">
        <ele>433</ele>
        <time>2015-10-27T09:28:44Z</time>
      </trkpt>
      <trkpt lat="45.00285" lon="4.51317">
        <ele>432</ele>
        <time>2015-10-27T09:28:48Z</time>
      </trkpt>
      <trkpt lat="45.0028" lon="4.5131">
        <ele>432</ele>
        <time>2015-10-27T09:28:52Z</time>
      </trkpt>
      <trkpt lat="45.00274" lon="4.51302">
        <ele>431</ele>
        <time>2015-10-27T09:28:58Z</time>
      </trkpt>
      <trkpt lat="45.00266" lon="4.51297">
        <ele>431</ele>
        <time>2015-10-27T09:29:06Z</time>
      </trkpt>
      <trkpt lat="45.00258" lon="4.51299">
        <ele>430</ele>
        <time>2015-10-27T09:29:14Z</time>
      </trkpt>
      <trkpt lat="45.00257" lon="4.51299">
        <ele>430</ele>
        <time>2015-10-27T09:29:16Z</time>
      </trkpt>
      <trkpt lat="45.0025" lon="4.51308">
        <ele>430</ele>
        <time>2015-10-27T09:29:23Z</time>
      </trkpt>
      <trkpt lat="45.00243" lon="4.51314">
        <ele>429</ele>
        <time>2015-10-27T09:29:32Z</time>
      </trkpt>
      <trkpt lat="45.00228" lon="4.51324">
        <ele>428</ele>
        <time>2015-10-27T09:29:36Z</time>
      </trkpt>
      <trkpt lat="45.00222" lon="4.51328">
        <ele>428</ele>
        <time>2015-10-27T09:29:40Z</time>
      </trkpt>
      <trkpt lat="45.00216" lon="4.51331">
        <ele>428</ele>
        <time>2015-10-27T09:29:42Z</time>
      </trkpt>
      <trkpt lat="45.00215" lon="4.51338">
        <ele>428</ele>
        <time>2015-10-27T09:29:47Z</time>
      </trkpt>
      <trkpt lat="45.00207" lon="4.51339">
        <ele>423</ele>
        <time>2015-10-27T09:29:57Z</time>
      </trkpt>
      <trkpt lat="45.00201" lon="4.51347">
        <ele>420</ele>
        <time>2015-10-27T09:30:02Z</time>
      </trkpt>
      <trkpt lat="45.00196" lon="4.51356">
        <ele>414</ele>
        <time>2015-10-27T09:30:09Z</time>
      </trkpt>
      <trkpt lat="45.00184" lon="4.51378">
        <ele>412</ele>
        <time>2015-10-27T09:30:14Z</time>
      </trkpt>
      <trkpt lat="45.00173" lon="4.51389">
        <ele>410</ele>
        <time>2015-10-27T09:30:23Z</time>
      </trkpt>
      <trkpt lat="45.00167" lon="4.51393">
        <ele>412</ele>
        <time>2015-10-27T09:30:32Z</time>
      </trkpt>
      <trkpt lat="45.00164" lon="4.51396">
        <ele>412</ele>
        <time>2015-10-27T09:30:34Z</time>
      </trkpt>
      <trkpt lat="45.00157" lon="4.51403">
        <ele>413</ele>
        <time>2015-10-27T09:30:42Z</time>
      </trkpt>
      <trkpt lat="45.00136" lon="4.51427">
        <ele>413</ele>
        <time>2015-10-27T09:30:58Z</time>
      </trkpt>
      <trkpt lat="45.00131" lon="4.51433">
        <ele>412</ele>
        <time>2015-10-27T09:31:04Z</time>
      </trkpt>
      <trkpt lat="45.00126" lon="4.51438">
        <ele>411</ele>
        <time>2015-10-27T09:31:16Z</time>
      </trkpt>
      <trkpt lat="45.00114" lon="4.51451">
        <ele>409</ele>
        <time>2015-10-27T09:31:19Z</time>
      </trkpt>
      <trkpt lat="45.00094" lon="4.51462">
        <ele>406</ele>
        <time>2015-10-27T09:31:33Z</time>
      </trkpt>
      <trkpt lat="45.00088" lon="4.51464">
        <ele>406</ele>
        <time>2015-10-27T09:31:36Z</time>
      </trkpt>
      <trkpt lat="45.00081" lon="4.51468">
        <ele>406</ele>
        <time>2015-10-27T09:31:40Z</time>
      </trkpt>
      <trkpt lat="45.00074" lon="4.51475">
        <ele>405</ele>
        <time>2015-10-27T09:31:45Z</time>
      </trkpt>
      <trkpt lat="45.00065" lon="4.51483">
        <ele>404</ele>
        <time>2015-10-27T09:31:49Z</time>
      </trkpt>
      <trkpt lat="45.00058" lon="4.51489">
        <ele>403</ele>
        <time>2015-10-27T09:31:54Z</time>
      </trkpt>
      <trkpt lat="45.00054" lon="4.515">
        <ele>402</ele>
        <time>2015-10-27T09:31:59Z</time>
      </trkpt>
      <trkpt lat="45.0005" lon="4.51508">
        <ele>401</ele>
        <time>2015-10-27T09:32:04Z</time>
      </trkpt>
      <trkpt lat="45.00045" lon="4.51516">
        <ele>400</ele>
        <time>2015-10-27T09:32:10Z</time>
      </trkpt>
      <trkpt lat="45.0004" lon="4.51526">
        <ele>399</ele>
        <time>2015-10-27T09:32:16Z</time>
      </trkpt>
      <trkpt lat="45.00035" lon="4.51533">
        <ele>398</ele>
        <time>2015-10-27T09:32:21Z</time>
      </trkpt>
      <trkpt lat="45.00029" lon="4.51542">
        <ele>398</ele>
        <time>2015-10-27T09:32:26Z</time>
      </trkpt>
      <trkpt lat="45.00021" lon="4.51551">
        <ele>397</ele>
        <time>2015-10-27T09:32:30Z</time>
      </trkpt>
      <trkpt lat="45.00014" lon="4.51557">
        <ele>397</ele>
        <time>2015-10-27T09:32:35Z</time>
      </trkpt>
      <trkpt lat="45.00008" lon="4.51562">
        <ele>396</ele>
        <time>2015-10-27T09:32:39Z</time>
      </trkpt>
      <trkpt lat="45.00003" lon="4.51569">
        <ele>396</ele>
        <time>2015-10-27T09:32:43Z</time>
      </trkpt>
      <trkpt lat="44.99996" lon="4.51579">
        <ele>395</ele>
        <time>2015-10-27T09:32:48Z</time>
      </trkpt>
      <trkpt lat="44.99991" lon="4.51587">
        <ele>395</ele>
        <time>2015-10-27T09:32:53Z</time>
      </trkpt>
      <trkpt lat="44.99984" lon="4.51592">
        <ele>395</ele>
        <time>2015-10-27T09:33:00Z</time>
      </trkpt>
      <trkpt lat="44.99976" lon="4.51599">
        <ele>394</ele>
        <time>2015-10-27T09:33:06Z</time>
      </trkpt>
      <trkpt lat="44.99969" lon="4.51606">
        <ele>393</ele>
        <time>2015-10-27T09:33:11Z</time>
      </trkpt>
      <trkpt lat="44.99962" lon="4.51614">
        <ele>393</ele>
        <time>2015-10-27T09:33:15Z</time>
      </trkpt>
      <trkpt lat="44.99955" lon="4.51622">
        <ele>393</ele>
        <time>2015-10-27T09:33:20Z</time>
      </trkpt>
      <trkpt lat="44.99952" lon="4.51629">
        <ele>392</ele>
        <time>2015-10-27T09:33:24Z</time>
      </trkpt>
      <trkpt lat="44.99946" lon="4.51635">
        <ele>392</ele>
        <time>2015-10-27T09:33:30Z</time>
      </trkpt>
      <trkpt lat="44.99936" lon="4.51638">
        <ele>392</ele>
        <time>2015-10-27T09:33:35Z</time>
      </trkpt>
      <trkpt lat="44.99932" lon="4.51649">
        <ele>393</ele>
        <time>2015-10-27T09:33:43Z</time>
      </trkpt>
      <trkpt lat="44.99925" lon="4.51652">
        <ele>393</ele>
        <time>2015-10-27T09:33:47Z</time>
      </trkpt>
      <trkpt lat="44.99919" lon="4.51655">
        <ele>393</ele>
        <time>2015-10-27T09:33:54Z</time>
      </trkpt>
      <trkpt lat="44.99911" lon="4.51656">
        <ele>393</ele>
        <time>2015-10-27T09:33:59Z</time>
      </trkpt>
      <trkpt lat="44.99906" lon="4.51654">
        <ele>393</ele>
        <time>2015-10-27T09:34:01Z</time>
      </trkpt>
      <trkpt lat="44.99902" lon="4.51652">
        <ele>393</ele>
        <time>2015-10-27T09:34:05Z</time>
      </trkpt>
      <trkpt lat="44.9989" lon="4.51644">
        <ele>393</ele>
        <time>2015-10-27T09:34:09Z</time>
      </trkpt>
      <trkpt lat="44.99883" lon="4.51638">
        <ele>393</ele>
        <time>2015-10-27T09:34:14Z</time>
      </trkpt>
      <trkpt lat="44.99876" lon="4.51635">
        <ele>394</ele>
        <time>2015-10-27T09:34:21Z</time>
      </trkpt>
      <trkpt lat="44.99871" lon="4.51633">
        <ele>395</ele>
        <time>2015-10-27T09:34:25Z</time>
      </trkpt>
      <trkpt lat="44.99863" lon="4.51626">
        <ele>395</ele>
        <time>2015-10-27T09:34:30Z</time>
      </trkpt>
      <trkpt lat="44.99857" lon="4.51621">
        <ele>396</ele>
        <time>2015-10-27T09:34:35Z</time>
      </trkpt>
      <trkpt lat="44.9985" lon="4.51617">
        <ele>396</ele>
        <time>2015-10-27T09:34:40Z</time>
      </trkpt>
      <trkpt lat="44.99842" lon="4.51613">
        <ele>397</ele>
        <time>2015-10-27T09:34:47Z</time>
      </trkpt>
      <trkpt lat="44.99835" lon="4.51606">
        <ele>397</ele>
        <time>2015-10-27T09:34:52Z</time>
      </trkpt>
      <trkpt lat="44.99826" lon="4.516">
        <ele>397</ele>
        <time>2015-10-27T09:34:57Z</time>
      </trkpt>
      <trkpt lat="44.99818" lon="4.51598">
        <ele>395</ele>
        <time>2015-10-27T09:35:02Z</time>
      </trkpt>
      <trkpt lat="44.99811" lon="4.516">
        <ele>394</ele>
        <time>2015-10-27T09:35:08Z</time>
      </trkpt>
      <trkpt lat="44.99805" lon="4.51603">
        <ele>394</ele>
        <time>2015-10-27T09:35:13Z</time>
      </trkpt>
      <trkpt lat="44.99795" lon="4.51608">
        <ele>393</ele>
        <time>2015-10-27T09:35:18Z</time>
      </trkpt>
      <trkpt lat="44.99789" lon="4.51614">
        <ele>393</ele>
        <time>2015-10-27T09:35:25Z</time>
      </trkpt>
      <trkpt lat="44.99783" lon="4.51617">
        <ele>393</ele>
        <time>2015-10-27T09:35:30Z</time>
      </trkpt>
      <trkpt lat="44.99778" lon="4.51621">
        <ele>393</ele>
        <time>2015-10-27T09:35:33Z</time>
      </trkpt>
      <trkpt lat="44.9977" lon="4.51628">
        <ele>393</ele>
        <time>2015-10-27T09:35:38Z</time>
      </trkpt>
      <trkpt lat="44.99764" lon="4.51632">
        <ele>393</ele>
        <time>2015-10-27T09:35:42Z</time>
      </trkpt>
      <trkpt lat="44.99762" lon="4.51643">
        <ele>395</ele>
        <time>2015-10-27T09:35:48Z</time>
      </trkpt>
      <trkpt lat="44.99754" lon="4.51646">
        <ele>396</ele>
        <time>2015-10-27T09:35:53Z</time>
      </trkpt>
      <trkpt lat="44.99745" lon="4.51652">
        <ele>397</ele>
        <time>2015-10-27T09:35:58Z</time>
      </trkpt>
      <trkpt lat="44.99738" lon="4.51654">
        <ele>399</ele>
        <time>2015-10-27T09:36:02Z</time>
      </trkpt>
      <trkpt lat="44.9973" lon="4.51657">
        <ele>400</ele>
        <time>2015-10-27T09:36:08Z</time>
      </trkpt>
      <trkpt lat="44.99722" lon="4.51659">
        <ele>400</ele>
        <time>2015-10-27T09:36:15Z</time>
      </trkpt>
      <trkpt lat="44.99715" lon="4.51659">
        <ele>401</ele>
        <time>2015-10-27T09:36:19Z</time>
      </trkpt>
      <trkpt lat="44.99707" lon="4.51662">
        <ele>401</ele>
        <time>2015-10-27T09:36:24Z</time>
      </trkpt>
      <trkpt lat="44.99699" lon="4.51669">
        <ele>402</ele>
        <time>2015-10-27T09:36:30Z</time>
      </trkpt>
      <trkpt lat="44.99691" lon="4.5167">
        <ele>402</ele>
        <time>2015-10-27T09:36:36Z</time>
      </trkpt>
      <trkpt lat="44.99683" lon="4.51672">
        <ele>403</ele>
        <time>2015-10-27T09:36:40Z</time>
      </trkpt>
      <trkpt lat="44.99675" lon="4.51671">
        <ele>403</ele>
        <time>2015-10-27T09:36:44Z</time>
      </trkpt>
      <trkpt lat="44.99667" lon="4.51666">
        <ele>403</ele>
        <time>2015-10-27T09:36:50Z</time>
      </trkpt>
      <trkpt lat="44.9966" lon="4.51662">
        <ele>404</ele>
        <time>2015-10-27T09:36:57Z</time>
      </trkpt>
      <trkpt lat="44.99653" lon="4.51659">
        <ele>405</ele>
        <time>2015-10-27T09:37:02Z</time>
      </trkpt>
      <trkpt lat="44.99645" lon="4.51654">
        <ele>406</ele>
        <time>2015-10-27T09:37:08Z</time>
      </trkpt>
      <trkpt lat="44.99638" lon="4.5165">
        <ele>406</ele>
        <time>2015-10-27T09:37:12Z</time>
      </trkpt>
      <trkpt lat="44.9963" lon="4.51646">
        <ele>406</ele>
        <time>2015-10-27T09:37:17Z</time>
      </trkpt>
      <trkpt lat="44.99623" lon="4.51646">
        <ele>406</ele>
        <time>2015-10-27T09:37:21Z</time>
      </trkpt>
      <trkpt lat="44.99617" lon="4.51646">
        <ele>407</ele>
        <time>2015-10-27T09:37:26Z</time>
      </trkpt>
      <trkpt lat="44.99609" lon="4.51647">
        <ele>408</ele>
        <time>2015-10-27T09:37:32Z</time>
      </trkpt>
      <trkpt lat="44.99603" lon="4.51647">
        <ele>409</ele>
        <time>2015-10-27T09:37:36Z</time>
      </trkpt>
      <trkpt lat="44.99596" lon="4.51652">
        <ele>410</ele>
        <time>2015-10-27T09:37:40Z</time>
      </trkpt>
      <trkpt lat="44.9959" lon="4.51657">
        <ele>411</ele>
        <time>2015-10-27T09:37:45Z</time>
      </trkpt>
      <trkpt lat="44.99584" lon="4.51662">
        <ele>412</ele>
        <time>2015-10-27T09:37:50Z</time>
      </trkpt>
      <trkpt lat="44.9958" lon="4.5167">
        <ele>413</ele>
        <time>2015-10-27T09:37:55Z</time>
      </trkpt>
      <trkpt lat="44.99574" lon="4.51676">
        <ele>414</ele>
        <time>2015-10-27T09:38:00Z</time>
      </trkpt>
      <trkpt lat="44.9957" lon="4.51687">
        <ele>416</ele>
        <time>2015-10-27T09:38:08Z</time>
      </trkpt>
      <trkpt lat="44.99563" lon="4.51689">
        <ele>418</ele>
        <time>2015-10-27T09:38:27Z</time>
      </trkpt>
      <trkpt lat="44.99559" lon="4.51691">
        <ele>418</ele>
        <time>2015-10-27T09:38:30Z</time>
      </trkpt>
      <trkpt lat="44.99559" lon="4.51691">
        <ele>418</ele>
        <time>2015-10-27T09:38:30Z</time>
      </trkpt>
    </trkseg>
  </trk>
</gpx>